<?xml version="1.0" encoding="UTF-8" standalone="no" ?>
<gpx xmlns="http://www.topografix.com/GPX/1/1" xmlns:xsi="http://www.w3.org/2001/XMLSchema-instance" xsi:schemaLocation="http://www.topografix.com/GPX/1/1 http://www.topografix.com/GPX/1/1/gpx.xsd" version="1.1" creator="VisuGPX - https://www.visugpx.com">
  <metadata>
    <name>MortagneSevre_GardeGrenon_9-21km</name>
    <desc><![CDATA[gnerando idor:8309080_9395868_14480589_14480594]]></desc>
  </metadata>
  <trk>
    <name><![CDATA[MortagneSevre_2Boucles_21.5km-8309080]]></name>
    <extensions>
      <line xmlns="http://www.topografix.com/GPX/gpx_style/0/2">
        <color>0000FF</color>
        <width>4</width>
      </line>
    </extensions>
    <trkseg>
      <trkpt lat="46.99286" lon="-0.9511">
        <ele>117</ele>
        <time>2023-11-05T14:38:24Z</time>
      </trkpt>
      <trkpt lat="46.99195" lon="-0.95131">
        <ele>117</ele>
        <time>2023-11-05T14:40:27Z</time>
      </trkpt>
      <trkpt lat="46.99146" lon="-0.95199">
        <ele>116</ele>
        <time>2023-11-05T14:41:57Z</time>
      </trkpt>
      <trkpt lat="46.99023" lon="-0.95298">
        <ele>112</ele>
        <time>2023-11-05T14:45:04Z</time>
      </trkpt>
      <trkpt lat="46.99" lon="-0.95314">
        <ele>110</ele>
        <time>2023-11-05T14:45:38Z</time>
      </trkpt>
      <trkpt lat="46.99002" lon="-0.95437">
        <ele>102</ele>
        <time>2023-11-05T14:47:30Z</time>
      </trkpt>
      <trkpt lat="46.98941" lon="-0.95473">
        <ele>97</ele>
        <time>2023-11-05T14:48:58Z</time>
      </trkpt>
      <trkpt lat="46.98908" lon="-0.95524">
        <ele>92</ele>
        <time>2023-11-05T14:50:02Z</time>
      </trkpt>
      <trkpt lat="46.98916" lon="-0.95585">
        <ele>82</ele>
        <time>2023-11-05T14:50:58Z</time>
      </trkpt>
      <trkpt lat="46.98854" lon="-0.95705">
        <ele>77</ele>
        <time>2023-11-05T14:53:16Z</time>
      </trkpt>
      <trkpt lat="46.98911" lon="-0.9572">
        <ele>70</ele>
        <time>2023-11-05T14:54:33Z</time>
      </trkpt>
      <trkpt lat="46.98988" lon="-0.95646">
        <ele>71</ele>
        <time>2023-11-05T14:56:36Z</time>
      </trkpt>
      <trkpt lat="46.99042" lon="-0.95605">
        <ele>80</ele>
        <time>2023-11-05T14:57:57Z</time>
      </trkpt>
      <trkpt lat="46.9916" lon="-0.95677">
        <ele>80</ele>
        <time>2023-11-05T15:00:47Z</time>
      </trkpt>
      <trkpt lat="46.99289" lon="-0.95858">
        <ele>81</ele>
        <time>2023-11-05T15:04:46Z</time>
      </trkpt>
      <trkpt lat="46.99316" lon="-0.95937">
        <ele>75</ele>
        <time>2023-11-05T15:06:06Z</time>
      </trkpt>
      <trkpt lat="46.99361" lon="-0.9599">
        <ele>73</ele>
        <time>2023-11-05T15:07:23Z</time>
      </trkpt>
      <trkpt lat="46.99432" lon="-0.96048">
        <ele>80</ele>
        <time>2023-11-05T15:09:12Z</time>
      </trkpt>
      <trkpt lat="46.99485" lon="-0.96255">
        <ele>78</ele>
        <time>2023-11-05T15:12:33Z</time>
      </trkpt>
      <trkpt lat="46.9955" lon="-0.96414">
        <ele>79</ele>
        <time>2023-11-05T15:15:22Z</time>
      </trkpt>
      <trkpt lat="46.99667" lon="-0.96671">
        <ele>76</ele>
        <time>2023-11-05T15:20:03Z</time>
      </trkpt>
      <trkpt lat="46.9957" lon="-0.96817">
        <ele>75</ele>
        <time>2023-11-05T15:23:08Z</time>
      </trkpt>
      <trkpt lat="46.99535" lon="-0.96967">
        <ele>75</ele>
        <time>2023-11-05T15:25:33Z</time>
      </trkpt>
      <trkpt lat="46.99532" lon="-0.97195">
        <ele>77</ele>
        <time>2023-11-05T15:29:00Z</time>
      </trkpt>
      <trkpt lat="46.99488" lon="-0.97375">
        <ele>68</ele>
        <time>2023-11-05T15:31:54Z</time>
      </trkpt>
      <trkpt lat="46.99526" lon="-0.97809">
        <ele>64</ele>
        <time>2023-11-05T15:38:32Z</time>
      </trkpt>
      <trkpt lat="46.99629" lon="-0.97856">
        <ele>69</ele>
        <time>2023-11-05T15:40:56Z</time>
      </trkpt>
      <trkpt lat="46.99775" lon="-0.98109">
        <ele>71</ele>
        <time>2023-11-05T15:45:58Z</time>
      </trkpt>
      <trkpt lat="46.99784" lon="-0.98276">
        <ele>69</ele>
        <time>2023-11-05T15:48:30Z</time>
      </trkpt>
      <trkpt lat="46.99836" lon="-0.98366">
        <ele>68</ele>
        <time>2023-11-05T15:50:18Z</time>
      </trkpt>
      <trkpt lat="46.9993" lon="-0.9874">
        <ele>63</ele>
        <time>2023-11-05T15:56:21Z</time>
      </trkpt>
      <trkpt lat="46.99992" lon="-0.98881">
        <ele>71</ele>
        <time>2023-11-05T15:58:53Z</time>
      </trkpt>
      <trkpt lat="46.99962" lon="-0.98924">
        <ele>67</ele>
        <time>2023-11-05T15:59:49Z</time>
      </trkpt>
      <trkpt lat="46.99968" lon="-0.99152">
        <ele>69</ele>
        <time>2023-11-05T16:03:17Z</time>
      </trkpt>
      <trkpt lat="47.0005" lon="-0.99298">
        <ele>70</ele>
        <time>2023-11-05T16:06:09Z</time>
      </trkpt>
      <trkpt lat="47.00085" lon="-0.99551">
        <ele>68</ele>
        <time>2023-11-05T16:10:04Z</time>
      </trkpt>
      <trkpt lat="47.0015" lon="-0.99873">
        <ele>72</ele>
        <time>2023-11-05T16:15:10Z</time>
      </trkpt>
      <trkpt lat="47.00132" lon="-1.0013">
        <ele>68</ele>
        <time>2023-11-05T16:19:05Z</time>
      </trkpt>
      <trkpt lat="47.00188" lon="-1.00276">
        <ele>66</ele>
        <time>2023-11-05T16:21:37Z</time>
      </trkpt>
      <trkpt lat="47.00226" lon="-1.01173">
        <ele>67</ele>
        <time>2023-11-05T16:35:15Z</time>
      </trkpt>
      <trkpt lat="47.00196" lon="-1.01233">
        <ele>67</ele>
        <time>2023-11-05T16:36:23Z</time>
      </trkpt>
      <trkpt lat="47.00185" lon="-1.01443">
        <ele>62</ele>
        <time>2023-11-05T16:39:34Z</time>
      </trkpt>
      <trkpt lat="47.00296" lon="-1.01491">
        <ele>65</ele>
        <time>2023-11-05T16:42:09Z</time>
      </trkpt>
      <trkpt lat="47.00185" lon="-1.01306">
        <ele>63</ele>
        <time>2023-11-05T16:45:53Z</time>
      </trkpt>
      <trkpt lat="47.00232" lon="-1.01113">
        <ele>67</ele>
        <time>2023-11-05T16:49:00Z</time>
      </trkpt>
      <trkpt lat="47.00158" lon="-1.00173">
        <ele>68</ele>
        <time>2023-11-05T17:03:21Z</time>
      </trkpt>
      <trkpt lat="47.00138" lon="-0.99813">
        <ele>72</ele>
        <time>2023-11-05T17:08:50Z</time>
      </trkpt>
      <trkpt lat="46.99992" lon="-0.99173">
        <ele>69</ele>
        <time>2023-11-05T17:19:04Z</time>
      </trkpt>
      <trkpt lat="46.99936" lon="-0.9877">
        <ele>63</ele>
        <time>2023-11-05T17:25:18Z</time>
      </trkpt>
      <trkpt lat="46.99839" lon="-0.98332">
        <ele>71</ele>
        <time>2023-11-05T17:32:17Z</time>
      </trkpt>
      <trkpt lat="47.00123" lon="-0.98315">
        <ele>103</ele>
        <time>2023-11-05T17:38:36Z</time>
      </trkpt>
      <trkpt lat="47.00287" lon="-0.98276">
        <ele>112</ele>
        <time>2023-11-05T17:42:18Z</time>
      </trkpt>
      <trkpt lat="47.00287" lon="-0.98203">
        <ele>111</ele>
        <time>2023-11-05T17:43:25Z</time>
      </trkpt>
      <trkpt lat="47.00381" lon="-0.9816">
        <ele>113</ele>
        <time>2023-11-05T17:45:36Z</time>
      </trkpt>
      <trkpt lat="47.00363" lon="-0.97984">
        <ele>119</ele>
        <time>2023-11-05T17:48:18Z</time>
      </trkpt>
      <trkpt lat="47.00158" lon="-0.97637">
        <ele>116</ele>
        <time>2023-11-05T17:55:16Z</time>
      </trkpt>
      <trkpt lat="47.00021" lon="-0.97165">
        <ele>109</ele>
        <time>2023-11-05T18:03:03Z</time>
      </trkpt>
      <trkpt lat="46.99965" lon="-0.97083">
        <ele>107</ele>
        <time>2023-11-05T18:04:48Z</time>
      </trkpt>
      <trkpt lat="46.99854" lon="-0.968">
        <ele>92</ele>
        <time>2023-11-05T18:09:45Z</time>
      </trkpt>
      <trkpt lat="46.99647" lon="-0.96508">
        <ele>87</ele>
        <time>2023-11-05T18:16:09Z</time>
      </trkpt>
      <trkpt lat="46.99459" lon="-0.96062">
        <ele>86</ele>
        <time>2023-11-05T18:24:06Z</time>
      </trkpt>
      <trkpt lat="46.99479" lon="-0.95822">
        <ele>104</ele>
        <time>2023-11-05T18:27:46Z</time>
      </trkpt>
      <trkpt lat="46.99409" lon="-0.95787">
        <ele>100</ele>
        <time>2023-11-05T18:29:25Z</time>
      </trkpt>
      <trkpt lat="46.99312" lon="-0.95922">
        <ele>76</ele>
        <time>2023-11-05T18:32:23Z</time>
      </trkpt>
      <trkpt lat="46.99194" lon="-0.95699">
        <ele>84</ele>
        <time>2023-11-05T18:36:40Z</time>
      </trkpt>
      <trkpt lat="46.99052" lon="-0.95606">
        <ele>81</ele>
        <time>2023-11-05T18:40:08Z</time>
      </trkpt>
      <trkpt lat="46.98976" lon="-0.95664">
        <ele>69</ele>
        <time>2023-11-05T18:42:02Z</time>
      </trkpt>
      <trkpt lat="46.98883" lon="-0.95726">
        <ele>72</ele>
        <time>2023-11-05T18:44:18Z</time>
      </trkpt>
      <trkpt lat="46.98855" lon="-0.95688">
        <ele>78</ele>
        <time>2023-11-05T18:45:09Z</time>
      </trkpt>
      <trkpt lat="46.98918" lon="-0.95603">
        <ele>79</ele>
        <time>2023-11-05T18:47:03Z</time>
      </trkpt>
      <trkpt lat="46.98911" lon="-0.95506">
        <ele>94</ele>
        <time>2023-11-05T18:48:32Z</time>
      </trkpt>
      <trkpt lat="46.98946" lon="-0.95457">
        <ele>99</ele>
        <time>2023-11-05T18:49:37Z</time>
      </trkpt>
      <trkpt lat="46.98999" lon="-0.95423">
        <ele>103</ele>
        <time>2023-11-05T18:50:54Z</time>
      </trkpt>
      <trkpt lat="46.98993" lon="-0.95312">
        <ele>110</ele>
        <time>2023-11-05T18:52:35Z</time>
      </trkpt>
      <trkpt lat="46.98862" lon="-0.95289">
        <ele>114</ele>
        <time>2023-11-05T18:55:31Z</time>
      </trkpt>
      <trkpt lat="46.98779" lon="-0.95281">
        <ele>117</ele>
        <time>2023-11-05T18:57:22Z</time>
      </trkpt>
      <trkpt lat="46.98738" lon="-0.95343">
        <ele>115</ele>
        <time>2023-11-05T18:58:41Z</time>
      </trkpt>
      <trkpt lat="46.98716" lon="-0.95317">
        <ele>118</ele>
        <time>2023-11-05T18:59:19Z</time>
      </trkpt>
      <trkpt lat="46.98643" lon="-0.95298">
        <ele>119</ele>
        <time>2023-11-05T19:00:58Z</time>
      </trkpt>
      <trkpt lat="46.98612" lon="-0.95236">
        <ele>118</ele>
        <time>2023-11-05T19:02:08Z</time>
      </trkpt>
      <trkpt lat="46.98438" lon="-0.95096">
        <ele>113</ele>
        <time>2023-11-05T19:06:32Z</time>
      </trkpt>
      <trkpt lat="46.98432" lon="-0.94976">
        <ele>112</ele>
        <time>2023-11-05T19:08:22Z</time>
      </trkpt>
      <trkpt lat="46.98509" lon="-0.94822">
        <ele>117</ele>
        <time>2023-11-05T19:11:16Z</time>
      </trkpt>
      <trkpt lat="46.98451" lon="-0.94772">
        <ele>119</ele>
        <time>2023-11-05T19:12:46Z</time>
      </trkpt>
      <trkpt lat="46.98023" lon="-0.94258">
        <ele>105</ele>
        <time>2023-11-05T19:25:04Z</time>
      </trkpt>
      <trkpt lat="46.9795" lon="-0.94289">
        <ele>102</ele>
        <time>2023-11-05T19:26:45Z</time>
      </trkpt>
      <trkpt lat="46.97814" lon="-0.94166">
        <ele>93</ele>
        <time>2023-11-05T19:30:19Z</time>
      </trkpt>
      <trkpt lat="46.97685" lon="-0.94049">
        <ele>99</ele>
        <time>2023-11-05T19:33:41Z</time>
      </trkpt>
      <trkpt lat="46.97626" lon="-0.93972">
        <ele>105</ele>
        <time>2023-11-05T19:35:27Z</time>
      </trkpt>
      <trkpt lat="46.97589" lon="-0.93927">
        <ele>107</ele>
        <time>2023-11-05T19:36:31Z</time>
      </trkpt>
      <trkpt lat="46.97541" lon="-0.93884">
        <ele>111</ele>
        <time>2023-11-05T19:37:46Z</time>
      </trkpt>
      <trkpt lat="46.97412" lon="-0.93824">
        <ele>123</ele>
        <time>2023-11-05T19:40:46Z</time>
      </trkpt>
      <trkpt lat="46.97308" lon="-0.93712">
        <ele>129</ele>
        <time>2023-11-05T19:43:39Z</time>
      </trkpt>
      <trkpt lat="46.97195" lon="-0.93503">
        <ele>137</ele>
        <time>2023-11-05T19:47:41Z</time>
      </trkpt>
      <trkpt lat="46.97094" lon="-0.9346">
        <ele>140</ele>
        <time>2023-11-05T19:50:02Z</time>
      </trkpt>
      <trkpt lat="46.96978" lon="-0.93225">
        <ele>130</ele>
        <time>2023-11-05T19:54:26Z</time>
      </trkpt>
      <trkpt lat="46.96892" lon="-0.9329">
        <ele>131</ele>
        <time>2023-11-05T19:56:35Z</time>
      </trkpt>
      <trkpt lat="46.96727" lon="-0.92991">
        <ele>107</ele>
        <time>2023-11-05T20:02:25Z</time>
      </trkpt>
      <trkpt lat="46.96655" lon="-0.93052">
        <ele>106</ele>
        <time>2023-11-05T20:04:16Z</time>
      </trkpt>
      <trkpt lat="46.96596" lon="-0.93258">
        <ele>107</ele>
        <time>2023-11-05T20:07:40Z</time>
      </trkpt>
      <trkpt lat="46.96567" lon="-0.93683">
        <ele>105</ele>
        <time>2023-11-05T20:14:09Z</time>
      </trkpt>
      <trkpt lat="46.9655" lon="-0.93875">
        <ele>99</ele>
        <time>2023-11-05T20:17:05Z</time>
      </trkpt>
      <trkpt lat="46.96596" lon="-0.94062">
        <ele>94</ele>
        <time>2023-11-05T20:20:06Z</time>
      </trkpt>
      <trkpt lat="46.9665" lon="-0.94091">
        <ele>100</ele>
        <time>2023-11-05T20:21:23Z</time>
      </trkpt>
      <trkpt lat="46.96786" lon="-0.94319">
        <ele>106</ele>
        <time>2023-11-05T20:25:58Z</time>
      </trkpt>
      <trkpt lat="46.96973" lon="-0.94225">
        <ele>110</ele>
        <time>2023-11-05T20:30:22Z</time>
      </trkpt>
      <trkpt lat="46.97104" lon="-0.9425">
        <ele>104</ele>
        <time>2023-11-05T20:33:19Z</time>
      </trkpt>
      <trkpt lat="46.97145" lon="-0.94145">
        <ele>112</ele>
        <time>2023-11-05T20:35:09Z</time>
      </trkpt>
      <trkpt lat="46.97298" lon="-0.94135">
        <ele>122</ele>
        <time>2023-11-05T20:38:33Z</time>
      </trkpt>
      <trkpt lat="46.97352" lon="-0.94077">
        <ele>124</ele>
        <time>2023-11-05T20:40:02Z</time>
      </trkpt>
      <trkpt lat="46.97498" lon="-0.94106">
        <ele>117</ele>
        <time>2023-11-05T20:43:19Z</time>
      </trkpt>
      <trkpt lat="46.97554" lon="-0.9421">
        <ele>111</ele>
        <time>2023-11-05T20:45:20Z</time>
      </trkpt>
      <trkpt lat="46.97535" lon="-0.94369">
        <ele>113</ele>
        <time>2023-11-05T20:47:47Z</time>
      </trkpt>
      <trkpt lat="46.97515" lon="-0.94506">
        <ele>109</ele>
        <time>2023-11-05T20:49:54Z</time>
      </trkpt>
      <trkpt lat="46.97377" lon="-0.94741">
        <ele>83</ele>
        <time>2023-11-05T20:54:37Z</time>
      </trkpt>
      <trkpt lat="46.97456" lon="-0.9486">
        <ele>82</ele>
        <time>2023-11-05T20:57:08Z</time>
      </trkpt>
      <trkpt lat="46.97557" lon="-0.94943">
        <ele>81</ele>
        <time>2023-11-05T20:59:42Z</time>
      </trkpt>
      <trkpt lat="46.97663" lon="-0.94874">
        <ele>78</ele>
        <time>2023-11-05T21:02:17Z</time>
      </trkpt>
      <trkpt lat="46.97722" lon="-0.94712">
        <ele>83</ele>
        <time>2023-11-05T21:05:04Z</time>
      </trkpt>
      <trkpt lat="46.9786" lon="-0.94737">
        <ele>81</ele>
        <time>2023-11-05T21:08:10Z</time>
      </trkpt>
      <trkpt lat="46.97968" lon="-0.94831">
        <ele>82</ele>
        <time>2023-11-05T21:10:57Z</time>
      </trkpt>
      <trkpt lat="46.9823" lon="-0.95242">
        <ele>78</ele>
        <time>2023-11-05T21:19:30Z</time>
      </trkpt>
      <trkpt lat="46.98341" lon="-0.95322">
        <ele>81</ele>
        <time>2023-11-05T21:22:15Z</time>
      </trkpt>
      <trkpt lat="46.98453" lon="-0.95452">
        <ele>82</ele>
        <time>2023-11-05T21:25:25Z</time>
      </trkpt>
      <trkpt lat="46.98498" lon="-0.95427">
        <ele>93</ele>
        <time>2023-11-05T21:26:29Z</time>
      </trkpt>
      <trkpt lat="46.98551" lon="-0.95547">
        <ele>94</ele>
        <time>2023-11-05T21:28:40Z</time>
      </trkpt>
      <trkpt lat="46.98756" lon="-0.95333">
        <ele>115</ele>
        <time>2023-11-05T21:34:15Z</time>
      </trkpt>
      <trkpt lat="46.98791" lon="-0.95275">
        <ele>117</ele>
        <time>2023-11-05T21:35:26Z</time>
      </trkpt>
      <trkpt lat="46.99008" lon="-0.95321">
        <ele>110</ele>
        <time>2023-11-05T21:40:18Z</time>
      </trkpt>
      <trkpt lat="46.99191" lon="-0.95127">
        <ele>117</ele>
        <time>2023-11-05T21:45:20Z</time>
      </trkpt>
      <trkpt lat="46.99286" lon="-0.95084">
        <ele>117</ele>
        <time>2023-11-05T21:47:33Z</time>
      </trkpt>
    </trkseg>
  </trk>
  <trk>
    <name><![CDATA[MortagneS_Grenon_13km-14480589]]></name>
    <extensions>
      <line xmlns="http://www.topografix.com/GPX/gpx_style/0/2">
        <color>00FF00</color>
        <width>4</width>
      </line>
    </extensions>
    <trkseg>
      <trkpt lat="46.99119" lon="-0.95238">
        <ele>114</ele>
        <time>2023-11-05T14:38:12Z</time>
      </trkpt>
      <trkpt lat="46.9907" lon="-0.95267">
        <ele>113</ele>
        <time>2023-11-05T14:39:23Z</time>
      </trkpt>
      <trkpt lat="46.99034" lon="-0.95304">
        <ele>111</ele>
        <time>2023-11-05T14:40:21Z</time>
      </trkpt>
      <trkpt lat="46.99004" lon="-0.9531">
        <ele>111</ele>
        <time>2023-11-05T14:41:02Z</time>
      </trkpt>
      <trkpt lat="46.98947" lon="-0.95304">
        <ele>111</ele>
        <time>2023-11-05T14:42:18Z</time>
      </trkpt>
      <trkpt lat="46.98934" lon="-0.9531">
        <ele>110</ele>
        <time>2023-11-05T14:42:36Z</time>
      </trkpt>
      <trkpt lat="46.98859" lon="-0.95287">
        <ele>114</ele>
        <time>2023-11-05T14:44:18Z</time>
      </trkpt>
      <trkpt lat="46.98831" lon="-0.95386">
        <ele>108</ele>
        <time>2023-11-05T14:45:56Z</time>
      </trkpt>
      <trkpt lat="46.9884" lon="-0.95474">
        <ele>103</ele>
        <time>2023-11-05T14:47:17Z</time>
      </trkpt>
      <trkpt lat="46.98867" lon="-0.95488">
        <ele>100</ele>
        <time>2023-11-05T14:47:55Z</time>
      </trkpt>
      <trkpt lat="46.98889" lon="-0.95525">
        <ele>94</ele>
        <time>2023-11-05T14:48:40Z</time>
      </trkpt>
      <trkpt lat="46.98915" lon="-0.95531">
        <ele>90</ele>
        <time>2023-11-05T14:49:15Z</time>
      </trkpt>
      <trkpt lat="46.98921" lon="-0.95563">
        <ele>85</ele>
        <time>2023-11-05T14:49:45Z</time>
      </trkpt>
      <trkpt lat="46.98912" lon="-0.95606">
        <ele>80</ele>
        <time>2023-11-05T14:50:26Z</time>
      </trkpt>
      <trkpt lat="46.98856" lon="-0.95696">
        <ele>77</ele>
        <time>2023-11-05T14:52:17Z</time>
      </trkpt>
      <trkpt lat="46.98883" lon="-0.95729">
        <ele>72</ele>
        <time>2023-11-05T14:53:04Z</time>
      </trkpt>
      <trkpt lat="46.98985" lon="-0.9565">
        <ele>71</ele>
        <time>2023-11-05T14:55:38Z</time>
      </trkpt>
      <trkpt lat="46.99054" lon="-0.95592">
        <ele>84</ele>
        <time>2023-11-05T14:57:24Z</time>
      </trkpt>
      <trkpt lat="46.99129" lon="-0.95624">
        <ele>86</ele>
        <time>2023-11-05T14:59:08Z</time>
      </trkpt>
      <trkpt lat="46.99204" lon="-0.95706">
        <ele>85</ele>
        <time>2023-11-05T15:01:13Z</time>
      </trkpt>
      <trkpt lat="46.99291" lon="-0.95854">
        <ele>82</ele>
        <time>2023-11-05T15:04:11Z</time>
      </trkpt>
      <trkpt lat="46.99329" lon="-0.95959">
        <ele>74</ele>
        <time>2023-11-05T15:05:59Z</time>
      </trkpt>
      <trkpt lat="46.99413" lon="-0.96102">
        <ele>73</ele>
        <time>2023-11-05T15:08:51Z</time>
      </trkpt>
      <trkpt lat="46.99452" lon="-0.96182">
        <ele>77</ele>
        <time>2023-11-05T15:10:20Z</time>
      </trkpt>
      <trkpt lat="46.99511" lon="-0.96431">
        <ele>72</ele>
        <time>2023-11-05T15:14:20Z</time>
      </trkpt>
      <trkpt lat="46.99531" lon="-0.96482">
        <ele>72</ele>
        <time>2023-11-05T15:15:14Z</time>
      </trkpt>
      <trkpt lat="46.99568" lon="-0.96512">
        <ele>72</ele>
        <time>2023-11-05T15:16:10Z</time>
      </trkpt>
      <trkpt lat="46.99578" lon="-0.9655">
        <ele>71</ele>
        <time>2023-11-05T15:16:47Z</time>
      </trkpt>
      <trkpt lat="46.99579" lon="-0.96658">
        <ele>67</ele>
        <time>2023-11-05T15:18:26Z</time>
      </trkpt>
      <trkpt lat="46.99608" lon="-0.96763">
        <ele>72</ele>
        <time>2023-11-05T15:20:09Z</time>
      </trkpt>
      <trkpt lat="46.9958" lon="-0.96819">
        <ele>76</ele>
        <time>2023-11-05T15:21:12Z</time>
      </trkpt>
      <trkpt lat="46.99556" lon="-0.9686">
        <ele>75</ele>
        <time>2023-11-05T15:22:01Z</time>
      </trkpt>
      <trkpt lat="46.99541" lon="-0.96923">
        <ele>74</ele>
        <time>2023-11-05T15:23:02Z</time>
      </trkpt>
      <trkpt lat="46.99528" lon="-0.97012">
        <ele>75</ele>
        <time>2023-11-05T15:24:25Z</time>
      </trkpt>
      <trkpt lat="46.99529" lon="-0.97167">
        <ele>76</ele>
        <time>2023-11-05T15:26:46Z</time>
      </trkpt>
      <trkpt lat="46.99504" lon="-0.97296">
        <ele>68</ele>
        <time>2023-11-05T15:28:48Z</time>
      </trkpt>
      <trkpt lat="46.99485" lon="-0.97389">
        <ele>68</ele>
        <time>2023-11-05T15:30:16Z</time>
      </trkpt>
      <trkpt lat="46.99523" lon="-0.97804">
        <ele>64</ele>
        <time>2023-11-05T15:36:37Z</time>
      </trkpt>
      <trkpt lat="46.99616" lon="-0.97844">
        <ele>68</ele>
        <time>2023-11-05T15:38:47Z</time>
      </trkpt>
      <trkpt lat="46.99675" lon="-0.97908">
        <ele>70</ele>
        <time>2023-11-05T15:40:25Z</time>
      </trkpt>
      <trkpt lat="46.9979" lon="-0.98102">
        <ele>73</ele>
        <time>2023-11-05T15:44:18Z</time>
      </trkpt>
      <trkpt lat="46.99831" lon="-0.98358">
        <ele>68</ele>
        <time>2023-11-05T15:48:18Z</time>
      </trkpt>
      <trkpt lat="46.99889" lon="-0.98523">
        <ele>67</ele>
        <time>2023-11-05T15:51:07Z</time>
      </trkpt>
      <trkpt lat="46.99924" lon="-0.98731">
        <ele>62</ele>
        <time>2023-11-05T15:54:22Z</time>
      </trkpt>
      <trkpt lat="46.99918" lon="-0.98746">
        <ele>60</ele>
        <time>2023-11-05T15:54:38Z</time>
      </trkpt>
      <trkpt lat="46.99937" lon="-0.98761">
        <ele>64</ele>
        <time>2023-11-05T15:55:06Z</time>
      </trkpt>
      <trkpt lat="46.99985" lon="-0.98815">
        <ele>71</ele>
        <time>2023-11-05T15:56:27Z</time>
      </trkpt>
      <trkpt lat="47.00006" lon="-0.98871">
        <ele>74</ele>
        <time>2023-11-05T15:57:25Z</time>
      </trkpt>
      <trkpt lat="46.99975" lon="-0.98922">
        <ele>69</ele>
        <time>2023-11-05T15:58:27Z</time>
      </trkpt>
      <trkpt lat="46.99994" lon="-0.9918">
        <ele>69</ele>
        <time>2023-11-05T16:02:24Z</time>
      </trkpt>
      <trkpt lat="47.00041" lon="-0.9928">
        <ele>69</ele>
        <time>2023-11-05T16:04:14Z</time>
      </trkpt>
      <trkpt lat="47.0008" lon="-0.9939">
        <ele>74</ele>
        <time>2023-11-05T16:06:07Z</time>
      </trkpt>
      <trkpt lat="47.00089" lon="-0.99426">
        <ele>76</ele>
        <time>2023-11-05T16:06:42Z</time>
      </trkpt>
      <trkpt lat="47.00074" lon="-0.99484">
        <ele>71</ele>
        <time>2023-11-05T16:07:38Z</time>
      </trkpt>
      <trkpt lat="47.00098" lon="-0.99607">
        <ele>70</ele>
        <time>2023-11-05T16:09:35Z</time>
      </trkpt>
      <trkpt lat="47.00124" lon="-0.99793">
        <ele>71</ele>
        <time>2023-11-05T16:12:28Z</time>
      </trkpt>
      <trkpt lat="47.00152" lon="-0.99843">
        <ele>73</ele>
        <time>2023-11-05T16:13:26Z</time>
      </trkpt>
      <trkpt lat="47.00129" lon="-0.99937">
        <ele>69</ele>
        <time>2023-11-05T16:14:57Z</time>
      </trkpt>
      <trkpt lat="47.00134" lon="-1.00152">
        <ele>67</ele>
        <time>2023-11-05T16:18:13Z</time>
      </trkpt>
      <trkpt lat="47.00219" lon="-1.00407">
        <ele>72</ele>
        <time>2023-11-05T16:22:31Z</time>
      </trkpt>
      <trkpt lat="47.00221" lon="-1.00652">
        <ele>67</ele>
        <time>2023-11-05T16:26:14Z</time>
      </trkpt>
      <trkpt lat="47.00225" lon="-1.0089">
        <ele>66</ele>
        <time>2023-11-05T16:29:51Z</time>
      </trkpt>
      <trkpt lat="47.00289" lon="-1.00857">
        <ele>77</ele>
        <time>2023-11-05T16:31:22Z</time>
      </trkpt>
      <trkpt lat="47.00363" lon="-1.00707">
        <ele>89</ele>
        <time>2023-11-05T16:34:10Z</time>
      </trkpt>
      <trkpt lat="47.00398" lon="-1.00699">
        <ele>93</ele>
        <time>2023-11-05T16:34:57Z</time>
      </trkpt>
      <trkpt lat="47.00434" lon="-1.00707">
        <ele>95</ele>
        <time>2023-11-05T16:35:46Z</time>
      </trkpt>
      <trkpt lat="47.00464" lon="-1.00694">
        <ele>97</ele>
        <time>2023-11-05T16:36:28Z</time>
      </trkpt>
      <trkpt lat="47.00502" lon="-1.00694">
        <ele>98</ele>
        <time>2023-11-05T16:37:18Z</time>
      </trkpt>
      <trkpt lat="47.00529" lon="-1.0069">
        <ele>98</ele>
        <time>2023-11-05T16:37:55Z</time>
      </trkpt>
      <trkpt lat="47.00535" lon="-1.00697">
        <ele>98</ele>
        <time>2023-11-05T16:38:05Z</time>
      </trkpt>
      <trkpt lat="47.00548" lon="-1.00697">
        <ele>98</ele>
        <time>2023-11-05T16:38:22Z</time>
      </trkpt>
      <trkpt lat="47.00644" lon="-1.00662">
        <ele>102</ele>
        <time>2023-11-05T16:40:34Z</time>
      </trkpt>
      <trkpt lat="47.00818" lon="-1.00396">
        <ele>115</ele>
        <time>2023-11-05T16:46:10Z</time>
      </trkpt>
      <trkpt lat="47.00695" lon="-1.00259">
        <ele>113</ele>
        <time>2023-11-05T16:49:36Z</time>
      </trkpt>
      <trkpt lat="47.00666" lon="-1.00104">
        <ele>114</ele>
        <time>2023-11-05T16:52:02Z</time>
      </trkpt>
      <trkpt lat="47.00659" lon="-0.99826">
        <ele>109</ele>
        <time>2023-11-05T16:56:15Z</time>
      </trkpt>
      <trkpt lat="47.0063" lon="-0.9974">
        <ele>107</ele>
        <time>2023-11-05T16:57:42Z</time>
      </trkpt>
      <trkpt lat="47.00747" lon="-0.9976">
        <ele>114</ele>
        <time>2023-11-05T17:00:20Z</time>
      </trkpt>
      <trkpt lat="47.009" lon="-0.99796">
        <ele>118</ele>
        <time>2023-11-05T17:03:46Z</time>
      </trkpt>
      <trkpt lat="47.01007" lon="-0.99797">
        <ele>120</ele>
        <time>2023-11-05T17:06:09Z</time>
      </trkpt>
      <trkpt lat="47.01085" lon="-0.99774">
        <ele>123</ele>
        <time>2023-11-05T17:07:55Z</time>
      </trkpt>
      <trkpt lat="47.0114" lon="-0.99713">
        <ele>125</ele>
        <time>2023-11-05T17:09:27Z</time>
      </trkpt>
      <trkpt lat="47.01069" lon="-0.99605">
        <ele>125</ele>
        <time>2023-11-05T17:11:44Z</time>
      </trkpt>
      <trkpt lat="47.01042" lon="-0.99566">
        <ele>126</ele>
        <time>2023-11-05T17:12:34Z</time>
      </trkpt>
      <trkpt lat="47.01033" lon="-0.99491">
        <ele>127</ele>
        <time>2023-11-05T17:13:44Z</time>
      </trkpt>
      <trkpt lat="47.00963" lon="-0.99383">
        <ele>127</ele>
        <time>2023-11-05T17:15:59Z</time>
      </trkpt>
      <trkpt lat="47.00915" lon="-0.99331">
        <ele>127</ele>
        <time>2023-11-05T17:17:19Z</time>
      </trkpt>
      <trkpt lat="47.00881" lon="-0.99313">
        <ele>126</ele>
        <time>2023-11-05T17:18:07Z</time>
      </trkpt>
      <trkpt lat="47.0085" lon="-0.99227">
        <ele>125</ele>
        <time>2023-11-05T17:19:36Z</time>
      </trkpt>
      <trkpt lat="47.00698" lon="-0.99065">
        <ele>119</ele>
        <time>2023-11-05T17:23:46Z</time>
      </trkpt>
      <trkpt lat="47.00581" lon="-0.98904">
        <ele>112</ele>
        <time>2023-11-05T17:27:21Z</time>
      </trkpt>
      <trkpt lat="47.00561" lon="-0.98879">
        <ele>111</ele>
        <time>2023-11-05T17:27:56Z</time>
      </trkpt>
      <trkpt lat="47.00536" lon="-0.98704">
        <ele>111</ele>
        <time>2023-11-05T17:30:38Z</time>
      </trkpt>
      <trkpt lat="47.00543" lon="-0.98594">
        <ele>118</ele>
        <time>2023-11-05T17:32:19Z</time>
      </trkpt>
      <trkpt lat="47.00519" lon="-0.98504">
        <ele>119</ele>
        <time>2023-11-05T17:33:47Z</time>
      </trkpt>
      <trkpt lat="47.00677" lon="-0.98392">
        <ele>129</ele>
        <time>2023-11-05T17:37:41Z</time>
      </trkpt>
      <trkpt lat="47.00688" lon="-0.98351">
        <ele>129</ele>
        <time>2023-11-05T17:38:21Z</time>
      </trkpt>
      <trkpt lat="47.00767" lon="-0.98246">
        <ele>132</ele>
        <time>2023-11-05T17:40:43Z</time>
      </trkpt>
      <trkpt lat="47.00775" lon="-0.98166">
        <ele>131</ele>
        <time>2023-11-05T17:41:57Z</time>
      </trkpt>
      <trkpt lat="47.00774" lon="-0.98132">
        <ele>130</ele>
        <time>2023-11-05T17:42:28Z</time>
      </trkpt>
      <trkpt lat="47.00742" lon="-0.98095">
        <ele>129</ele>
        <time>2023-11-05T17:43:22Z</time>
      </trkpt>
      <trkpt lat="47.00693" lon="-0.98147">
        <ele>126</ele>
        <time>2023-11-05T17:44:43Z</time>
      </trkpt>
      <trkpt lat="47.00572" lon="-0.98089">
        <ele>121</ele>
        <time>2023-11-05T17:47:33Z</time>
      </trkpt>
      <trkpt lat="47.00543" lon="-0.98019">
        <ele>120</ele>
        <time>2023-11-05T17:48:47Z</time>
      </trkpt>
      <trkpt lat="47.00451" lon="-0.97979">
        <ele>120</ele>
        <time>2023-11-05T17:50:55Z</time>
      </trkpt>
      <trkpt lat="47.00475" lon="-0.97877">
        <ele>124</ele>
        <time>2023-11-05T17:52:34Z</time>
      </trkpt>
      <trkpt lat="47.00534" lon="-0.97727">
        <ele>126</ele>
        <time>2023-11-05T17:55:11Z</time>
      </trkpt>
      <trkpt lat="47.00535" lon="-0.97574">
        <ele>123</ele>
        <time>2023-11-05T17:57:31Z</time>
      </trkpt>
      <trkpt lat="47.00497" lon="-0.97491">
        <ele>120</ele>
        <time>2023-11-05T17:59:01Z</time>
      </trkpt>
      <trkpt lat="47.00364" lon="-0.97333">
        <ele>117</ele>
        <time>2023-11-05T18:02:50Z</time>
      </trkpt>
      <trkpt lat="47.00348" lon="-0.97368">
        <ele>120</ele>
        <time>2023-11-05T18:03:28Z</time>
      </trkpt>
      <trkpt lat="47.0036" lon="-0.97391">
        <ele>121</ele>
        <time>2023-11-05T18:03:55Z</time>
      </trkpt>
      <trkpt lat="47.00354" lon="-0.97401">
        <ele>121</ele>
        <time>2023-11-05T18:04:07Z</time>
      </trkpt>
      <trkpt lat="47.00331" lon="-0.9738">
        <ele>121</ele>
        <time>2023-11-05T18:04:43Z</time>
      </trkpt>
      <trkpt lat="47.00304" lon="-0.97351">
        <ele>120</ele>
        <time>2023-11-05T18:05:28Z</time>
      </trkpt>
      <trkpt lat="47.00266" lon="-0.97322">
        <ele>119</ele>
        <time>2023-11-05T18:06:25Z</time>
      </trkpt>
      <trkpt lat="47.00189" lon="-0.97134">
        <ele>107</ele>
        <time>2023-11-05T18:09:44Z</time>
      </trkpt>
      <trkpt lat="47.00165" lon="-0.97109">
        <ele>105</ele>
        <time>2023-11-05T18:10:24Z</time>
      </trkpt>
      <trkpt lat="47.00121" lon="-0.97134">
        <ele>105</ele>
        <time>2023-11-05T18:11:27Z</time>
      </trkpt>
      <trkpt lat="47.0007" lon="-0.97159">
        <ele>106</ele>
        <time>2023-11-05T18:12:38Z</time>
      </trkpt>
      <trkpt lat="47.00016" lon="-0.97162">
        <ele>109</ele>
        <time>2023-11-05T18:13:50Z</time>
      </trkpt>
      <trkpt lat="46.99982" lon="-0.97126">
        <ele>108</ele>
        <time>2023-11-05T18:14:46Z</time>
      </trkpt>
      <trkpt lat="46.99933" lon="-0.96943">
        <ele>98</ele>
        <time>2023-11-05T18:17:45Z</time>
      </trkpt>
      <trkpt lat="46.9992" lon="-0.96946">
        <ele>98</ele>
        <time>2023-11-05T18:18:03Z</time>
      </trkpt>
      <trkpt lat="46.99798" lon="-0.96808">
        <ele>92</ele>
        <time>2023-11-05T18:21:28Z</time>
      </trkpt>
      <trkpt lat="46.9985" lon="-0.96798">
        <ele>92</ele>
        <time>2023-11-05T18:22:38Z</time>
      </trkpt>
      <trkpt lat="46.99719" lon="-0.96615">
        <ele>91</ele>
        <time>2023-11-05T18:26:40Z</time>
      </trkpt>
      <trkpt lat="46.99564" lon="-0.96358">
        <ele>88</ele>
        <time>2023-11-05T18:31:52Z</time>
      </trkpt>
      <trkpt lat="46.99553" lon="-0.96285">
        <ele>92</ele>
        <time>2023-11-05T18:33:00Z</time>
      </trkpt>
      <trkpt lat="46.99451" lon="-0.96042">
        <ele>85</ele>
        <time>2023-11-05T18:37:20Z</time>
      </trkpt>
      <trkpt lat="46.99462" lon="-0.95993">
        <ele>89</ele>
        <time>2023-11-05T18:38:07Z</time>
      </trkpt>
      <trkpt lat="46.99433" lon="-0.96045">
        <ele>80</ele>
        <time>2023-11-05T18:39:08Z</time>
      </trkpt>
      <trkpt lat="46.99395" lon="-0.96012">
        <ele>75</ele>
        <time>2023-11-05T18:40:07Z</time>
      </trkpt>
      <trkpt lat="46.99414" lon="-0.9596">
        <ele>82</ele>
        <time>2023-11-05T18:41:01Z</time>
      </trkpt>
      <trkpt lat="46.99436" lon="-0.95925">
        <ele>89</ele>
        <time>2023-11-05T18:41:44Z</time>
      </trkpt>
      <trkpt lat="46.99419" lon="-0.95803">
        <ele>100</ele>
        <time>2023-11-05T18:43:37Z</time>
      </trkpt>
      <trkpt lat="46.9941" lon="-0.95784">
        <ele>100</ele>
        <time>2023-11-05T18:43:58Z</time>
      </trkpt>
      <trkpt lat="46.99462" lon="-0.95781">
        <ele>104</ele>
        <time>2023-11-05T18:45:08Z</time>
      </trkpt>
      <trkpt lat="46.99462" lon="-0.95715">
        <ele>105</ele>
        <time>2023-11-05T18:46:08Z</time>
      </trkpt>
      <trkpt lat="46.99438" lon="-0.95694">
        <ele>104</ele>
        <time>2023-11-05T18:46:45Z</time>
      </trkpt>
      <trkpt lat="46.99425" lon="-0.95598">
        <ele>105</ele>
        <time>2023-11-05T18:48:14Z</time>
      </trkpt>
      <trkpt lat="46.99396" lon="-0.9559">
        <ele>106</ele>
        <time>2023-11-05T18:48:54Z</time>
      </trkpt>
      <trkpt lat="46.9937" lon="-0.95605">
        <ele>107</ele>
        <time>2023-11-05T18:49:31Z</time>
      </trkpt>
      <trkpt lat="46.99343" lon="-0.95601">
        <ele>109</ele>
        <time>2023-11-05T18:50:07Z</time>
      </trkpt>
      <trkpt lat="46.99299" lon="-0.95601">
        <ele>110</ele>
        <time>2023-11-05T18:51:06Z</time>
      </trkpt>
      <trkpt lat="46.99297" lon="-0.95493">
        <ele>115</ele>
        <time>2023-11-05T18:52:44Z</time>
      </trkpt>
      <trkpt lat="46.9931" lon="-0.95479">
        <ele>115</ele>
        <time>2023-11-05T18:53:06Z</time>
      </trkpt>
      <trkpt lat="46.9929" lon="-0.95398">
        <ele>119</ele>
        <time>2023-11-05T18:54:24Z</time>
      </trkpt>
      <trkpt lat="46.99291" lon="-0.95348">
        <ele>119</ele>
        <time>2023-11-05T18:55:10Z</time>
      </trkpt>
      <trkpt lat="46.99258" lon="-0.95345">
        <ele>119</ele>
        <time>2023-11-05T18:55:54Z</time>
      </trkpt>
      <trkpt lat="46.99224" lon="-0.95286">
        <ele>116</ele>
        <time>2023-11-05T18:57:04Z</time>
      </trkpt>
      <trkpt lat="46.99207" lon="-0.95289">
        <ele>115</ele>
        <time>2023-11-05T18:57:27Z</time>
      </trkpt>
      <trkpt lat="46.99155" lon="-0.95208">
        <ele>115</ele>
        <time>2023-11-05T18:59:08Z</time>
      </trkpt>
      <trkpt lat="46.99119" lon="-0.95238">
        <ele>114</ele>
        <time>2023-11-05T19:00:03Z</time>
      </trkpt>
    </trkseg>
  </trk>
  <trk>
    <name><![CDATA[MortagneS_Garde_9.4km-14480594]]></name>
    <extensions>
      <line xmlns="http://www.topografix.com/GPX/gpx_style/0/2">
        <color>FF0000</color>
        <width>4</width>
      </line>
    </extensions>
    <trkseg>
      <trkpt lat="46.99145" lon="-0.95227">
        <ele>114</ele>
        <time>2023-11-05T14:38:00Z</time>
      </trkpt>
      <trkpt lat="46.99077" lon="-0.95275">
        <ele>113</ele>
        <time>2023-11-05T14:39:41Z</time>
      </trkpt>
      <trkpt lat="46.99068" lon="-0.95272">
        <ele>113</ele>
        <time>2023-11-05T14:39:53Z</time>
      </trkpt>
      <trkpt lat="46.99031" lon="-0.95309">
        <ele>111</ele>
        <time>2023-11-05T14:40:53Z</time>
      </trkpt>
      <trkpt lat="46.99003" lon="-0.95315">
        <ele>110</ele>
        <time>2023-11-05T14:41:31Z</time>
      </trkpt>
      <trkpt lat="46.98951" lon="-0.95305">
        <ele>111</ele>
        <time>2023-11-05T14:42:41Z</time>
      </trkpt>
      <trkpt lat="46.98938" lon="-0.95309">
        <ele>110</ele>
        <time>2023-11-05T14:42:58Z</time>
      </trkpt>
      <trkpt lat="46.98906" lon="-0.95299">
        <ele>112</ele>
        <time>2023-11-05T14:43:42Z</time>
      </trkpt>
      <trkpt lat="46.98881" lon="-0.95294">
        <ele>113</ele>
        <time>2023-11-05T14:44:16Z</time>
      </trkpt>
      <trkpt lat="46.98868" lon="-0.9529">
        <ele>113</ele>
        <time>2023-11-05T14:44:33Z</time>
      </trkpt>
      <trkpt lat="46.98855" lon="-0.95291">
        <ele>114</ele>
        <time>2023-11-05T14:44:51Z</time>
      </trkpt>
      <trkpt lat="46.98793" lon="-0.95292">
        <ele>116</ele>
        <time>2023-11-05T14:46:13Z</time>
      </trkpt>
      <trkpt lat="46.98783" lon="-0.95285">
        <ele>117</ele>
        <time>2023-11-05T14:46:28Z</time>
      </trkpt>
      <trkpt lat="46.98775" lon="-0.95285">
        <ele>117</ele>
        <time>2023-11-05T14:46:39Z</time>
      </trkpt>
      <trkpt lat="46.98769" lon="-0.95291">
        <ele>117</ele>
        <time>2023-11-05T14:46:49Z</time>
      </trkpt>
      <trkpt lat="46.98738" lon="-0.95339">
        <ele>116</ele>
        <time>2023-11-05T14:47:49Z</time>
      </trkpt>
      <trkpt lat="46.98713" lon="-0.95318">
        <ele>118</ele>
        <time>2023-11-05T14:48:27Z</time>
      </trkpt>
      <trkpt lat="46.98706" lon="-0.95314">
        <ele>118</ele>
        <time>2023-11-05T14:48:37Z</time>
      </trkpt>
      <trkpt lat="46.98691" lon="-0.95323">
        <ele>119</ele>
        <time>2023-11-05T14:48:59Z</time>
      </trkpt>
      <trkpt lat="46.98674" lon="-0.9532">
        <ele>120</ele>
        <time>2023-11-05T14:49:22Z</time>
      </trkpt>
      <trkpt lat="46.9865" lon="-0.95308">
        <ele>119</ele>
        <time>2023-11-05T14:49:56Z</time>
      </trkpt>
      <trkpt lat="46.98618" lon="-0.95242">
        <ele>118</ele>
        <time>2023-11-05T14:51:09Z</time>
      </trkpt>
      <trkpt lat="46.98606" lon="-0.95225">
        <ele>118</ele>
        <time>2023-11-05T14:51:32Z</time>
      </trkpt>
      <trkpt lat="46.98586" lon="-0.95209">
        <ele>118</ele>
        <time>2023-11-05T14:52:02Z</time>
      </trkpt>
      <trkpt lat="46.98518" lon="-0.95141">
        <ele>116</ele>
        <time>2023-11-05T14:53:52Z</time>
      </trkpt>
      <trkpt lat="46.98464" lon="-0.9511">
        <ele>114</ele>
        <time>2023-11-05T14:55:09Z</time>
      </trkpt>
      <trkpt lat="46.98436" lon="-0.95093">
        <ele>113</ele>
        <time>2023-11-05T14:55:50Z</time>
      </trkpt>
      <trkpt lat="46.98415" lon="-0.95084">
        <ele>112</ele>
        <time>2023-11-05T14:56:19Z</time>
      </trkpt>
      <trkpt lat="46.9841" lon="-0.95085">
        <ele>112</ele>
        <time>2023-11-05T14:56:26Z</time>
      </trkpt>
      <trkpt lat="46.98385" lon="-0.95085">
        <ele>110</ele>
        <time>2023-11-05T14:56:59Z</time>
      </trkpt>
      <trkpt lat="46.98386" lon="-0.9504">
        <ele>109</ele>
        <time>2023-11-05T14:57:40Z</time>
      </trkpt>
      <trkpt lat="46.98422" lon="-0.95022">
        <ele>112</ele>
        <time>2023-11-05T14:58:31Z</time>
      </trkpt>
      <trkpt lat="46.98457" lon="-0.94961">
        <ele>114</ele>
        <time>2023-11-05T14:59:43Z</time>
      </trkpt>
      <trkpt lat="46.98525" lon="-0.94868">
        <ele>117</ele>
        <time>2023-11-05T15:01:47Z</time>
      </trkpt>
      <trkpt lat="46.98511" lon="-0.94831">
        <ele>117</ele>
        <time>2023-11-05T15:02:26Z</time>
      </trkpt>
      <trkpt lat="46.98454" lon="-0.94766">
        <ele>119</ele>
        <time>2023-11-05T15:04:02Z</time>
      </trkpt>
      <trkpt lat="46.98444" lon="-0.94773">
        <ele>119</ele>
        <time>2023-11-05T15:04:17Z</time>
      </trkpt>
      <trkpt lat="46.98092" lon="-0.94365">
        <ele>108</ele>
        <time>2023-11-05T15:14:16Z</time>
      </trkpt>
      <trkpt lat="46.98017" lon="-0.94278">
        <ele>105</ele>
        <time>2023-11-05T15:16:24Z</time>
      </trkpt>
      <trkpt lat="46.98011" lon="-0.94278">
        <ele>105</ele>
        <time>2023-11-05T15:16:32Z</time>
      </trkpt>
      <trkpt lat="46.98004" lon="-0.94277">
        <ele>105</ele>
        <time>2023-11-05T15:16:41Z</time>
      </trkpt>
      <trkpt lat="46.97962" lon="-0.94288">
        <ele>102</ele>
        <time>2023-11-05T15:17:38Z</time>
      </trkpt>
      <trkpt lat="46.97943" lon="-0.94288">
        <ele>101</ele>
        <time>2023-11-05T15:18:03Z</time>
      </trkpt>
      <trkpt lat="46.97926" lon="-0.94275">
        <ele>100</ele>
        <time>2023-11-05T15:18:29Z</time>
      </trkpt>
      <trkpt lat="46.97885" lon="-0.94228">
        <ele>96</ele>
        <time>2023-11-05T15:19:38Z</time>
      </trkpt>
      <trkpt lat="46.97852" lon="-0.94199">
        <ele>94</ele>
        <time>2023-11-05T15:20:30Z</time>
      </trkpt>
      <trkpt lat="46.97806" lon="-0.94167">
        <ele>93</ele>
        <time>2023-11-05T15:21:38Z</time>
      </trkpt>
      <trkpt lat="46.97758" lon="-0.94097">
        <ele>94</ele>
        <time>2023-11-05T15:23:08Z</time>
      </trkpt>
      <trkpt lat="46.97727" lon="-0.94093">
        <ele>95</ele>
        <time>2023-11-05T15:23:49Z</time>
      </trkpt>
      <trkpt lat="46.97678" lon="-0.94059">
        <ele>99</ele>
        <time>2023-11-05T15:25:02Z</time>
      </trkpt>
      <trkpt lat="46.97671" lon="-0.94065">
        <ele>99</ele>
        <time>2023-11-05T15:25:13Z</time>
      </trkpt>
      <trkpt lat="46.97668" lon="-0.94059">
        <ele>100</ele>
        <time>2023-11-05T15:25:19Z</time>
      </trkpt>
      <trkpt lat="46.97684" lon="-0.94034">
        <ele>99</ele>
        <time>2023-11-05T15:25:51Z</time>
      </trkpt>
      <trkpt lat="46.9771" lon="-0.9398">
        <ele>100</ele>
        <time>2023-11-05T15:26:51Z</time>
      </trkpt>
      <trkpt lat="46.97721" lon="-0.93956">
        <ele>100</ele>
        <time>2023-11-05T15:27:17Z</time>
      </trkpt>
      <trkpt lat="46.97757" lon="-0.93981">
        <ele>98</ele>
        <time>2023-11-05T15:28:10Z</time>
      </trkpt>
      <trkpt lat="46.97762" lon="-0.93975">
        <ele>98</ele>
        <time>2023-11-05T15:28:19Z</time>
      </trkpt>
      <trkpt lat="46.97754" lon="-0.93932">
        <ele>99</ele>
        <time>2023-11-05T15:28:59Z</time>
      </trkpt>
      <trkpt lat="46.97754" lon="-0.93911">
        <ele>100</ele>
        <time>2023-11-05T15:29:19Z</time>
      </trkpt>
      <trkpt lat="46.97748" lon="-0.93886">
        <ele>101</ele>
        <time>2023-11-05T15:29:43Z</time>
      </trkpt>
      <trkpt lat="46.97754" lon="-0.93867">
        <ele>101</ele>
        <time>2023-11-05T15:30:02Z</time>
      </trkpt>
      <trkpt lat="46.9776" lon="-0.93808">
        <ele>102</ele>
        <time>2023-11-05T15:30:56Z</time>
      </trkpt>
      <trkpt lat="46.97749" lon="-0.93781">
        <ele>103</ele>
        <time>2023-11-05T15:31:25Z</time>
      </trkpt>
      <trkpt lat="46.97742" lon="-0.93752">
        <ele>103</ele>
        <time>2023-11-05T15:31:53Z</time>
      </trkpt>
      <trkpt lat="46.97733" lon="-0.93736">
        <ele>104</ele>
        <time>2023-11-05T15:32:12Z</time>
      </trkpt>
      <trkpt lat="46.97705" lon="-0.93709">
        <ele>105</ele>
        <time>2023-11-05T15:32:56Z</time>
      </trkpt>
      <trkpt lat="46.97669" lon="-0.93722">
        <ele>107</ele>
        <time>2023-11-05T15:33:46Z</time>
      </trkpt>
      <trkpt lat="46.97642" lon="-0.93667">
        <ele>108</ele>
        <time>2023-11-05T15:34:47Z</time>
      </trkpt>
      <trkpt lat="46.97624" lon="-0.93679">
        <ele>109</ele>
        <time>2023-11-05T15:35:14Z</time>
      </trkpt>
      <trkpt lat="46.97603" lon="-0.9368">
        <ele>111</ele>
        <time>2023-11-05T15:35:42Z</time>
      </trkpt>
      <trkpt lat="46.97607" lon="-0.93739">
        <ele>111</ele>
        <time>2023-11-05T15:36:36Z</time>
      </trkpt>
      <trkpt lat="46.9762" lon="-0.93805">
        <ele>109</ele>
        <time>2023-11-05T15:37:38Z</time>
      </trkpt>
      <trkpt lat="46.97618" lon="-0.93838">
        <ele>108</ele>
        <time>2023-11-05T15:38:09Z</time>
      </trkpt>
      <trkpt lat="46.97574" lon="-0.93851">
        <ele>110</ele>
        <time>2023-11-05T15:39:08Z</time>
      </trkpt>
      <trkpt lat="46.97556" lon="-0.93835">
        <ele>112</ele>
        <time>2023-11-05T15:39:37Z</time>
      </trkpt>
      <trkpt lat="46.97542" lon="-0.93879">
        <ele>111</ele>
        <time>2023-11-05T15:40:21Z</time>
      </trkpt>
      <trkpt lat="46.97523" lon="-0.93861">
        <ele>113</ele>
        <time>2023-11-05T15:40:51Z</time>
      </trkpt>
      <trkpt lat="46.97484" lon="-0.93842">
        <ele>116</ele>
        <time>2023-11-05T15:41:46Z</time>
      </trkpt>
      <trkpt lat="46.97442" lon="-0.93827">
        <ele>120</ele>
        <time>2023-11-05T15:42:44Z</time>
      </trkpt>
      <trkpt lat="46.974" lon="-0.93789">
        <ele>124</ele>
        <time>2023-11-05T15:43:49Z</time>
      </trkpt>
      <trkpt lat="46.97391" lon="-0.93777">
        <ele>125</ele>
        <time>2023-11-05T15:44:06Z</time>
      </trkpt>
      <trkpt lat="46.9735" lon="-0.93743">
        <ele>128</ele>
        <time>2023-11-05T15:45:08Z</time>
      </trkpt>
      <trkpt lat="46.97311" lon="-0.93701">
        <ele>129</ele>
        <time>2023-11-05T15:46:13Z</time>
      </trkpt>
      <trkpt lat="46.97306" lon="-0.93653">
        <ele>130</ele>
        <time>2023-11-05T15:46:57Z</time>
      </trkpt>
      <trkpt lat="46.9729" lon="-0.93608">
        <ele>132</ele>
        <time>2023-11-05T15:47:43Z</time>
      </trkpt>
      <trkpt lat="46.97234" lon="-0.93524">
        <ele>135</ele>
        <time>2023-11-05T15:49:30Z</time>
      </trkpt>
      <trkpt lat="46.97205" lon="-0.9349">
        <ele>137</ele>
        <time>2023-11-05T15:50:20Z</time>
      </trkpt>
      <trkpt lat="46.97095" lon="-0.93448">
        <ele>140</ele>
        <time>2023-11-05T15:52:52Z</time>
      </trkpt>
      <trkpt lat="46.96985" lon="-0.93219">
        <ele>130</ele>
        <time>2023-11-05T15:57:07Z</time>
      </trkpt>
      <trkpt lat="46.96969" lon="-0.9321">
        <ele>129</ele>
        <time>2023-11-05T15:57:30Z</time>
      </trkpt>
      <trkpt lat="46.96895" lon="-0.93264">
        <ele>130</ele>
        <time>2023-11-05T15:59:20Z</time>
      </trkpt>
      <trkpt lat="46.96835" lon="-0.93123">
        <ele>124</ele>
        <time>2023-11-05T16:01:51Z</time>
      </trkpt>
      <trkpt lat="46.96763" lon="-0.93045">
        <ele>115</ele>
        <time>2023-11-05T16:03:51Z</time>
      </trkpt>
      <trkpt lat="46.96745" lon="-0.93011">
        <ele>111</ele>
        <time>2023-11-05T16:04:30Z</time>
      </trkpt>
      <trkpt lat="46.96741" lon="-0.92993">
        <ele>109</ele>
        <time>2023-11-05T16:04:47Z</time>
      </trkpt>
      <trkpt lat="46.9674" lon="-0.92987">
        <ele>108</ele>
        <time>2023-11-05T16:04:53Z</time>
      </trkpt>
      <trkpt lat="46.96713" lon="-0.9299">
        <ele>106</ele>
        <time>2023-11-05T16:05:29Z</time>
      </trkpt>
      <trkpt lat="46.96653" lon="-0.9305">
        <ele>106</ele>
        <time>2023-11-05T16:07:06Z</time>
      </trkpt>
      <trkpt lat="46.9661" lon="-0.93138">
        <ele>106</ele>
        <time>2023-11-05T16:08:44Z</time>
      </trkpt>
      <trkpt lat="46.966" lon="-0.93219">
        <ele>107</ele>
        <time>2023-11-05T16:09:59Z</time>
      </trkpt>
      <trkpt lat="46.96596" lon="-0.93285">
        <ele>107</ele>
        <time>2023-11-05T16:11:00Z</time>
      </trkpt>
      <trkpt lat="46.96565" lon="-0.93494">
        <ele>104</ele>
        <time>2023-11-05T16:14:14Z</time>
      </trkpt>
      <trkpt lat="46.96571" lon="-0.93555">
        <ele>105</ele>
        <time>2023-11-05T16:15:11Z</time>
      </trkpt>
      <trkpt lat="46.96556" lon="-0.93695">
        <ele>103</ele>
        <time>2023-11-05T16:17:20Z</time>
      </trkpt>
      <trkpt lat="46.9656" lon="-0.9372">
        <ele>104</ele>
        <time>2023-11-05T16:17:43Z</time>
      </trkpt>
      <trkpt lat="46.9655" lon="-0.93757">
        <ele>102</ele>
        <time>2023-11-05T16:18:19Z</time>
      </trkpt>
      <trkpt lat="46.96547" lon="-0.93796">
        <ele>100</ele>
        <time>2023-11-05T16:18:55Z</time>
      </trkpt>
      <trkpt lat="46.96554" lon="-0.93828">
        <ele>100</ele>
        <time>2023-11-05T16:19:26Z</time>
      </trkpt>
      <trkpt lat="46.96552" lon="-0.93862">
        <ele>99</ele>
        <time>2023-11-05T16:19:57Z</time>
      </trkpt>
      <trkpt lat="46.96561" lon="-0.93958">
        <ele>97</ele>
        <time>2023-11-05T16:21:25Z</time>
      </trkpt>
      <trkpt lat="46.96564" lon="-0.93984">
        <ele>95</ele>
        <time>2023-11-05T16:21:49Z</time>
      </trkpt>
      <trkpt lat="46.96587" lon="-0.94061">
        <ele>92</ele>
        <time>2023-11-05T16:23:05Z</time>
      </trkpt>
      <trkpt lat="46.96591" lon="-0.94073">
        <ele>93</ele>
        <time>2023-11-05T16:23:18Z</time>
      </trkpt>
      <trkpt lat="46.96608" lon="-0.94057">
        <ele>96</ele>
        <time>2023-11-05T16:23:45Z</time>
      </trkpt>
      <trkpt lat="46.9662" lon="-0.94054">
        <ele>98</ele>
        <time>2023-11-05T16:24:01Z</time>
      </trkpt>
      <trkpt lat="46.96632" lon="-0.94065">
        <ele>99</ele>
        <time>2023-11-05T16:24:20Z</time>
      </trkpt>
      <trkpt lat="46.96662" lon="-0.94129">
        <ele>100</ele>
        <time>2023-11-05T16:25:30Z</time>
      </trkpt>
      <trkpt lat="46.96679" lon="-0.94172">
        <ele>101</ele>
        <time>2023-11-05T16:26:16Z</time>
      </trkpt>
      <trkpt lat="46.96685" lon="-0.94202">
        <ele>101</ele>
        <time>2023-11-05T16:26:44Z</time>
      </trkpt>
      <trkpt lat="46.96734" lon="-0.94274">
        <ele>106</ele>
        <time>2023-11-05T16:28:17Z</time>
      </trkpt>
      <trkpt lat="46.96763" lon="-0.94307">
        <ele>106</ele>
        <time>2023-11-05T16:29:06Z</time>
      </trkpt>
      <trkpt lat="46.96796" lon="-0.94323">
        <ele>106</ele>
        <time>2023-11-05T16:29:52Z</time>
      </trkpt>
      <trkpt lat="46.96842" lon="-0.94314">
        <ele>109</ele>
        <time>2023-11-05T16:30:54Z</time>
      </trkpt>
      <trkpt lat="46.96895" lon="-0.94287">
        <ele>108</ele>
        <time>2023-11-05T16:32:09Z</time>
      </trkpt>
      <trkpt lat="46.96911" lon="-0.94261">
        <ele>112</ele>
        <time>2023-11-05T16:32:41Z</time>
      </trkpt>
      <trkpt lat="46.96945" lon="-0.94232">
        <ele>111</ele>
        <time>2023-11-05T16:33:33Z</time>
      </trkpt>
      <trkpt lat="46.96971" lon="-0.9422">
        <ele>110</ele>
        <time>2023-11-05T16:34:10Z</time>
      </trkpt>
      <trkpt lat="46.97074" lon="-0.9425">
        <ele>103</ele>
        <time>2023-11-05T16:36:30Z</time>
      </trkpt>
      <trkpt lat="46.971" lon="-0.94246">
        <ele>104</ele>
        <time>2023-11-05T16:37:05Z</time>
      </trkpt>
      <trkpt lat="46.97113" lon="-0.94226">
        <ele>107</ele>
        <time>2023-11-05T16:37:30Z</time>
      </trkpt>
      <trkpt lat="46.97133" lon="-0.94158">
        <ele>112</ele>
        <time>2023-11-05T16:38:37Z</time>
      </trkpt>
      <trkpt lat="46.97142" lon="-0.94148">
        <ele>112</ele>
        <time>2023-11-05T16:38:52Z</time>
      </trkpt>
      <trkpt lat="46.97161" lon="-0.94144">
        <ele>112</ele>
        <time>2023-11-05T16:39:18Z</time>
      </trkpt>
      <trkpt lat="46.97163" lon="-0.94168">
        <ele>111</ele>
        <time>2023-11-05T16:39:40Z</time>
      </trkpt>
      <trkpt lat="46.9716" lon="-0.94227">
        <ele>109</ele>
        <time>2023-11-05T16:40:34Z</time>
      </trkpt>
      <trkpt lat="46.97161" lon="-0.9428">
        <ele>102</ele>
        <time>2023-11-05T16:41:22Z</time>
      </trkpt>
      <trkpt lat="46.97151" lon="-0.94302">
        <ele>97</ele>
        <time>2023-11-05T16:41:46Z</time>
      </trkpt>
      <trkpt lat="46.97147" lon="-0.94324">
        <ele>93</ele>
        <time>2023-11-05T16:42:07Z</time>
      </trkpt>
      <trkpt lat="46.9716" lon="-0.94295">
        <ele>99</ele>
        <time>2023-11-05T16:42:39Z</time>
      </trkpt>
      <trkpt lat="46.97174" lon="-0.94274">
        <ele>105</ele>
        <time>2023-11-05T16:43:05Z</time>
      </trkpt>
      <trkpt lat="46.97182" lon="-0.9428">
        <ele>105</ele>
        <time>2023-11-05T16:43:17Z</time>
      </trkpt>
      <trkpt lat="46.97189" lon="-0.94299">
        <ele>103</ele>
        <time>2023-11-05T16:43:37Z</time>
      </trkpt>
      <trkpt lat="46.97223" lon="-0.94353">
        <ele>103</ele>
        <time>2023-11-05T16:44:44Z</time>
      </trkpt>
      <trkpt lat="46.97252" lon="-0.94383">
        <ele>107</ele>
        <time>2023-11-05T16:45:31Z</time>
      </trkpt>
      <trkpt lat="46.97284" lon="-0.94407">
        <ele>111</ele>
        <time>2023-11-05T16:46:19Z</time>
      </trkpt>
      <trkpt lat="46.97327" lon="-0.94448">
        <ele>115</ele>
        <time>2023-11-05T16:47:28Z</time>
      </trkpt>
      <trkpt lat="46.97348" lon="-0.9446">
        <ele>116</ele>
        <time>2023-11-05T16:47:58Z</time>
      </trkpt>
      <trkpt lat="46.97362" lon="-0.94459">
        <ele>116</ele>
        <time>2023-11-05T16:48:16Z</time>
      </trkpt>
      <trkpt lat="46.97375" lon="-0.94455">
        <ele>116</ele>
        <time>2023-11-05T16:48:34Z</time>
      </trkpt>
      <trkpt lat="46.97411" lon="-0.94458">
        <ele>116</ele>
        <time>2023-11-05T16:49:22Z</time>
      </trkpt>
      <trkpt lat="46.97443" lon="-0.94511">
        <ele>111</ele>
        <time>2023-11-05T16:50:27Z</time>
      </trkpt>
      <trkpt lat="46.97462" lon="-0.9454">
        <ele>109</ele>
        <time>2023-11-05T16:51:03Z</time>
      </trkpt>
      <trkpt lat="46.97474" lon="-0.9456">
        <ele>107</ele>
        <time>2023-11-05T16:51:28Z</time>
      </trkpt>
      <trkpt lat="46.9748" lon="-0.94569">
        <ele>107</ele>
        <time>2023-11-05T16:51:39Z</time>
      </trkpt>
      <trkpt lat="46.97434" lon="-0.94604">
        <ele>103</ele>
        <time>2023-11-05T16:52:48Z</time>
      </trkpt>
      <trkpt lat="46.97422" lon="-0.9463">
        <ele>100</ele>
        <time>2023-11-05T16:53:17Z</time>
      </trkpt>
      <trkpt lat="46.97412" lon="-0.94636">
        <ele>99</ele>
        <time>2023-11-05T16:53:31Z</time>
      </trkpt>
      <trkpt lat="46.97399" lon="-0.94677">
        <ele>92</ele>
        <time>2023-11-05T16:54:12Z</time>
      </trkpt>
      <trkpt lat="46.97379" lon="-0.94706">
        <ele>86</ele>
        <time>2023-11-05T16:54:50Z</time>
      </trkpt>
      <trkpt lat="46.9738" lon="-0.94717">
        <ele>85</ele>
        <time>2023-11-05T16:55:00Z</time>
      </trkpt>
      <trkpt lat="46.97408" lon="-0.94744">
        <ele>88</ele>
        <time>2023-11-05T16:55:45Z</time>
      </trkpt>
      <trkpt lat="46.97413" lon="-0.94769">
        <ele>86</ele>
        <time>2023-11-05T16:56:08Z</time>
      </trkpt>
      <trkpt lat="46.97434" lon="-0.94793">
        <ele>86</ele>
        <time>2023-11-05T16:56:44Z</time>
      </trkpt>
      <trkpt lat="46.97451" lon="-0.94825">
        <ele>85</ele>
        <time>2023-11-05T16:57:21Z</time>
      </trkpt>
      <trkpt lat="46.97472" lon="-0.94842">
        <ele>86</ele>
        <time>2023-11-05T16:57:53Z</time>
      </trkpt>
      <trkpt lat="46.97498" lon="-0.94879">
        <ele>85</ele>
        <time>2023-11-05T16:58:41Z</time>
      </trkpt>
      <trkpt lat="46.97541" lon="-0.94906">
        <ele>83</ele>
        <time>2023-11-05T16:59:44Z</time>
      </trkpt>
      <trkpt lat="46.97573" lon="-0.94911">
        <ele>84</ele>
        <time>2023-11-05T17:00:27Z</time>
      </trkpt>
      <trkpt lat="46.97647" lon="-0.94848">
        <ele>81</ele>
        <time>2023-11-05T17:02:21Z</time>
      </trkpt>
      <trkpt lat="46.97656" lon="-0.9483">
        <ele>81</ele>
        <time>2023-11-05T17:02:41Z</time>
      </trkpt>
      <trkpt lat="46.97724" lon="-0.94705">
        <ele>83</ele>
        <time>2023-11-05T17:05:07Z</time>
      </trkpt>
      <trkpt lat="46.97735" lon="-0.94695">
        <ele>82</ele>
        <time>2023-11-05T17:05:24Z</time>
      </trkpt>
      <trkpt lat="46.97793" lon="-0.94728">
        <ele>80</ele>
        <time>2023-11-05T17:06:47Z</time>
      </trkpt>
      <trkpt lat="46.97835" lon="-0.94724">
        <ele>81</ele>
        <time>2023-11-05T17:07:43Z</time>
      </trkpt>
      <trkpt lat="46.97875" lon="-0.94737">
        <ele>82</ele>
        <time>2023-11-05T17:08:38Z</time>
      </trkpt>
      <trkpt lat="46.97902" lon="-0.94757">
        <ele>81</ele>
        <time>2023-11-05T17:09:18Z</time>
      </trkpt>
      <trkpt lat="46.97958" lon="-0.948">
        <ele>83</ele>
        <time>2023-11-05T17:10:43Z</time>
      </trkpt>
      <trkpt lat="46.97983" lon="-0.94834">
        <ele>83</ele>
        <time>2023-11-05T17:11:28Z</time>
      </trkpt>
      <trkpt lat="46.97998" lon="-0.94882">
        <ele>82</ele>
        <time>2023-11-05T17:12:16Z</time>
      </trkpt>
      <trkpt lat="46.98039" lon="-0.9492">
        <ele>84</ele>
        <time>2023-11-05T17:13:21Z</time>
      </trkpt>
      <trkpt lat="46.98054" lon="-0.94937">
        <ele>84</ele>
        <time>2023-11-05T17:13:46Z</time>
      </trkpt>
      <trkpt lat="46.98076" lon="-0.94958">
        <ele>83</ele>
        <time>2023-11-05T17:14:21Z</time>
      </trkpt>
      <trkpt lat="46.98119" lon="-0.95021">
        <ele>83</ele>
        <time>2023-11-05T17:15:42Z</time>
      </trkpt>
      <trkpt lat="46.98137" lon="-0.95077">
        <ele>83</ele>
        <time>2023-11-05T17:16:39Z</time>
      </trkpt>
      <trkpt lat="46.98149" lon="-0.95103">
        <ele>83</ele>
        <time>2023-11-05T17:17:07Z</time>
      </trkpt>
      <trkpt lat="46.98155" lon="-0.95106">
        <ele>83</ele>
        <time>2023-11-05T17:17:16Z</time>
      </trkpt>
      <trkpt lat="46.98158" lon="-0.95113">
        <ele>83</ele>
        <time>2023-11-05T17:17:23Z</time>
      </trkpt>
      <trkpt lat="46.98176" lon="-0.95123">
        <ele>85</ele>
        <time>2023-11-05T17:17:49Z</time>
      </trkpt>
      <trkpt lat="46.98191" lon="-0.95141">
        <ele>85</ele>
        <time>2023-11-05T17:18:15Z</time>
      </trkpt>
      <trkpt lat="46.98202" lon="-0.95153">
        <ele>85</ele>
        <time>2023-11-05T17:18:33Z</time>
      </trkpt>
      <trkpt lat="46.98212" lon="-0.9517">
        <ele>85</ele>
        <time>2023-11-05T17:18:54Z</time>
      </trkpt>
      <trkpt lat="46.98222" lon="-0.95192">
        <ele>84</ele>
        <time>2023-11-05T17:19:18Z</time>
      </trkpt>
      <trkpt lat="46.98246" lon="-0.95232">
        <ele>79</ele>
        <time>2023-11-05T17:20:06Z</time>
      </trkpt>
      <trkpt lat="46.9825" lon="-0.95241">
        <ele>78</ele>
        <time>2023-11-05T17:20:16Z</time>
      </trkpt>
      <trkpt lat="46.98266" lon="-0.95261">
        <ele>79</ele>
        <time>2023-11-05T17:20:44Z</time>
      </trkpt>
      <trkpt lat="46.98277" lon="-0.95268">
        <ele>80</ele>
        <time>2023-11-05T17:21:00Z</time>
      </trkpt>
      <trkpt lat="46.9829" lon="-0.95277">
        <ele>82</ele>
        <time>2023-11-05T17:21:19Z</time>
      </trkpt>
      <trkpt lat="46.98299" lon="-0.95285">
        <ele>82</ele>
        <time>2023-11-05T17:21:33Z</time>
      </trkpt>
      <trkpt lat="46.98312" lon="-0.95284">
        <ele>84</ele>
        <time>2023-11-05T17:21:51Z</time>
      </trkpt>
      <trkpt lat="46.98317" lon="-0.9529">
        <ele>84</ele>
        <time>2023-11-05T17:21:59Z</time>
      </trkpt>
      <trkpt lat="46.98328" lon="-0.953">
        <ele>84</ele>
        <time>2023-11-05T17:22:17Z</time>
      </trkpt>
      <trkpt lat="46.98331" lon="-0.95303">
        <ele>83</ele>
        <time>2023-11-05T17:22:21Z</time>
      </trkpt>
      <trkpt lat="46.98337" lon="-0.95306">
        <ele>84</ele>
        <time>2023-11-05T17:22:30Z</time>
      </trkpt>
      <trkpt lat="46.98343" lon="-0.95311">
        <ele>84</ele>
        <time>2023-11-05T17:22:39Z</time>
      </trkpt>
      <trkpt lat="46.98349" lon="-0.95314">
        <ele>85</ele>
        <time>2023-11-05T17:22:48Z</time>
      </trkpt>
      <trkpt lat="46.98384" lon="-0.95352">
        <ele>86</ele>
        <time>2023-11-05T17:23:46Z</time>
      </trkpt>
      <trkpt lat="46.98444" lon="-0.95438">
        <ele>82</ele>
        <time>2023-11-05T17:25:38Z</time>
      </trkpt>
      <trkpt lat="46.98475" lon="-0.95437">
        <ele>87</ele>
        <time>2023-11-05T17:26:19Z</time>
      </trkpt>
      <trkpt lat="46.98502" lon="-0.95417">
        <ele>94</ele>
        <time>2023-11-05T17:26:59Z</time>
      </trkpt>
      <trkpt lat="46.98508" lon="-0.95428">
        <ele>94</ele>
        <time>2023-11-05T17:27:12Z</time>
      </trkpt>
      <trkpt lat="46.98522" lon="-0.95445">
        <ele>96</ele>
        <time>2023-11-05T17:27:36Z</time>
      </trkpt>
      <trkpt lat="46.98532" lon="-0.95479">
        <ele>94</ele>
        <time>2023-11-05T17:28:10Z</time>
      </trkpt>
      <trkpt lat="46.98553" lon="-0.95548">
        <ele>95</ele>
        <time>2023-11-05T17:29:19Z</time>
      </trkpt>
      <trkpt lat="46.98561" lon="-0.95548">
        <ele>97</ele>
        <time>2023-11-05T17:29:30Z</time>
      </trkpt>
      <trkpt lat="46.98565" lon="-0.95553">
        <ele>97</ele>
        <time>2023-11-05T17:29:37Z</time>
      </trkpt>
      <trkpt lat="46.9859" lon="-0.95554">
        <ele>103</ele>
        <time>2023-11-05T17:30:10Z</time>
      </trkpt>
      <trkpt lat="46.986" lon="-0.9555">
        <ele>104</ele>
        <time>2023-11-05T17:30:24Z</time>
      </trkpt>
      <trkpt lat="46.98666" lon="-0.95467">
        <ele>114</ele>
        <time>2023-11-05T17:32:20Z</time>
      </trkpt>
      <trkpt lat="46.98722" lon="-0.95391">
        <ele>115</ele>
        <time>2023-11-05T17:34:02Z</time>
      </trkpt>
      <trkpt lat="46.98724" lon="-0.95378">
        <ele>115</ele>
        <time>2023-11-05T17:34:14Z</time>
      </trkpt>
      <trkpt lat="46.98738" lon="-0.9535">
        <ele>115</ele>
        <time>2023-11-05T17:34:45Z</time>
      </trkpt>
      <trkpt lat="46.98758" lon="-0.95376">
        <ele>113</ele>
        <time>2023-11-05T17:35:21Z</time>
      </trkpt>
      <trkpt lat="46.98794" lon="-0.95383">
        <ele>111</ele>
        <time>2023-11-05T17:36:10Z</time>
      </trkpt>
      <trkpt lat="46.98838" lon="-0.95381">
        <ele>108</ele>
        <time>2023-11-05T17:37:08Z</time>
      </trkpt>
      <trkpt lat="46.98849" lon="-0.95359">
        <ele>108</ele>
        <time>2023-11-05T17:37:33Z</time>
      </trkpt>
      <trkpt lat="46.98891" lon="-0.95357">
        <ele>107</ele>
        <time>2023-11-05T17:38:29Z</time>
      </trkpt>
      <trkpt lat="46.98904" lon="-0.95329">
        <ele>109</ele>
        <time>2023-11-05T17:39:00Z</time>
      </trkpt>
      <trkpt lat="46.98928" lon="-0.95319">
        <ele>109</ele>
        <time>2023-11-05T17:39:33Z</time>
      </trkpt>
      <trkpt lat="46.98936" lon="-0.95313">
        <ele>110</ele>
        <time>2023-11-05T17:39:45Z</time>
      </trkpt>
      <trkpt lat="46.98949" lon="-0.95309">
        <ele>110</ele>
        <time>2023-11-05T17:40:03Z</time>
      </trkpt>
      <trkpt lat="46.98993" lon="-0.95309">
        <ele>111</ele>
        <time>2023-11-05T17:41:02Z</time>
      </trkpt>
      <trkpt lat="46.99009" lon="-0.9531">
        <ele>111</ele>
        <time>2023-11-05T17:41:23Z</time>
      </trkpt>
      <trkpt lat="46.99029" lon="-0.95304">
        <ele>111</ele>
        <time>2023-11-05T17:41:50Z</time>
      </trkpt>
      <trkpt lat="46.9905" lon="-0.95341">
        <ele>109</ele>
        <time>2023-11-05T17:42:34Z</time>
      </trkpt>
      <trkpt lat="46.99138" lon="-0.95302">
        <ele>112</ele>
        <time>2023-11-05T17:44:37Z</time>
      </trkpt>
      <trkpt lat="46.99166" lon="-0.95288">
        <ele>113</ele>
        <time>2023-11-05T17:45:16Z</time>
      </trkpt>
      <trkpt lat="46.99147" lon="-0.95238">
        <ele>114</ele>
        <time>2023-11-05T17:46:08Z</time>
      </trkpt>
    </trkseg>
  </trk>
  <trk>
    <name><![CDATA[Mortagne_BordsSèvre_21.4km-9395868]]></name>
    <extensions>
      <line xmlns="http://www.topografix.com/GPX/gpx_style/0/2">
        <color>00FFFF</color>
        <width>4</width>
      </line>
    </extensions>
    <trkseg>
      <trkpt lat="46.98789" lon="-0.94536">
        <ele>132</ele>
        <time>2023-11-05T14:37:46Z</time>
      </trkpt>
      <trkpt lat="46.98676" lon="-0.94482">
        <ele>133</ele>
        <time>2023-11-05T14:40:25Z</time>
      </trkpt>
      <trkpt lat="46.98623" lon="-0.94499">
        <ele>132</ele>
        <time>2023-11-05T14:41:37Z</time>
      </trkpt>
      <trkpt lat="46.98551" lon="-0.948">
        <ele>121</ele>
        <time>2023-11-05T14:46:27Z</time>
      </trkpt>
      <trkpt lat="46.98541" lon="-0.94863">
        <ele>119</ele>
        <time>2023-11-05T14:47:26Z</time>
      </trkpt>
      <trkpt lat="46.9841" lon="-0.94742">
        <ele>120</ele>
        <time>2023-11-05T14:50:53Z</time>
      </trkpt>
      <trkpt lat="46.98014" lon="-0.94286">
        <ele>105</ele>
        <time>2023-11-05T15:02:05Z</time>
      </trkpt>
      <trkpt lat="46.97967" lon="-0.94295">
        <ele>103</ele>
        <time>2023-11-05T15:03:08Z</time>
      </trkpt>
      <trkpt lat="46.97905" lon="-0.94283">
        <ele>98</ele>
        <time>2023-11-05T15:04:32Z</time>
      </trkpt>
      <trkpt lat="46.97837" lon="-0.94195">
        <ele>93</ele>
        <time>2023-11-05T15:06:33Z</time>
      </trkpt>
      <trkpt lat="46.97751" lon="-0.94114">
        <ele>93</ele>
        <time>2023-11-05T15:08:49Z</time>
      </trkpt>
      <trkpt lat="46.97762" lon="-0.94023">
        <ele>96</ele>
        <time>2023-11-05T15:10:13Z</time>
      </trkpt>
      <trkpt lat="46.97733" lon="-0.93917">
        <ele>101</ele>
        <time>2023-11-05T15:11:57Z</time>
      </trkpt>
      <trkpt lat="46.97704" lon="-0.93854">
        <ele>103</ele>
        <time>2023-11-05T15:13:06Z</time>
      </trkpt>
      <trkpt lat="46.97692" lon="-0.93743">
        <ele>106</ele>
        <time>2023-11-05T15:14:49Z</time>
      </trkpt>
      <trkpt lat="46.97635" lon="-0.9362">
        <ele>108</ele>
        <time>2023-11-05T15:17:04Z</time>
      </trkpt>
      <trkpt lat="46.97641" lon="-0.93213">
        <ele>117</ele>
        <time>2023-11-05T15:23:15Z</time>
      </trkpt>
      <trkpt lat="46.97393" lon="-0.93079">
        <ele>135</ele>
        <time>2023-11-05T15:29:07Z</time>
      </trkpt>
      <trkpt lat="46.97307" lon="-0.92625">
        <ele>139</ele>
        <time>2023-11-05T15:36:17Z</time>
      </trkpt>
      <trkpt lat="46.97327" lon="-0.92208">
        <ele>142</ele>
        <time>2023-11-05T15:42:37Z</time>
      </trkpt>
      <trkpt lat="46.96958" lon="-0.91939">
        <ele>133</ele>
        <time>2023-11-05T15:51:47Z</time>
      </trkpt>
      <trkpt lat="46.96806" lon="-0.91798">
        <ele>114</ele>
        <time>2023-11-05T15:55:47Z</time>
      </trkpt>
      <trkpt lat="46.96749" lon="-0.91753">
        <ele>104</ele>
        <time>2023-11-05T15:57:14Z</time>
      </trkpt>
      <trkpt lat="46.96847" lon="-0.91592">
        <ele>102</ele>
        <time>2023-11-05T16:00:30Z</time>
      </trkpt>
      <trkpt lat="46.96927" lon="-0.91455">
        <ele>108</ele>
        <time>2023-11-05T16:03:14Z</time>
      </trkpt>
      <trkpt lat="46.96948" lon="-0.91283">
        <ele>111</ele>
        <time>2023-11-05T16:05:53Z</time>
      </trkpt>
      <trkpt lat="46.96993" lon="-0.90974">
        <ele>114</ele>
        <time>2023-11-05T16:10:41Z</time>
      </trkpt>
      <trkpt lat="46.96968" lon="-0.90763">
        <ele>116</ele>
        <time>2023-11-05T16:13:56Z</time>
      </trkpt>
      <trkpt lat="46.96849" lon="-0.90571">
        <ele>111</ele>
        <time>2023-11-05T16:17:52Z</time>
      </trkpt>
      <trkpt lat="46.9678" lon="-0.90497">
        <ele>109</ele>
        <time>2023-11-05T16:19:46Z</time>
      </trkpt>
      <trkpt lat="46.96987" lon="-0.90208">
        <ele>113</ele>
        <time>2023-11-05T16:26:08Z</time>
      </trkpt>
      <trkpt lat="46.96966" lon="-0.90128">
        <ele>120</ele>
        <time>2023-11-05T16:27:26Z</time>
      </trkpt>
      <trkpt lat="46.9689" lon="-0.90082">
        <ele>125</ele>
        <time>2023-11-05T16:29:16Z</time>
      </trkpt>
      <trkpt lat="46.96892" lon="-0.90176">
        <ele>126</ele>
        <time>2023-11-05T16:30:41Z</time>
      </trkpt>
      <trkpt lat="46.96817" lon="-0.90262">
        <ele>126</ele>
        <time>2023-11-05T16:32:48Z</time>
      </trkpt>
      <trkpt lat="46.96741" lon="-0.90222">
        <ele>125</ele>
        <time>2023-11-05T16:34:36Z</time>
      </trkpt>
      <trkpt lat="46.96655" lon="-0.90119">
        <ele>129</ele>
        <time>2023-11-05T16:37:04Z</time>
      </trkpt>
      <trkpt lat="46.96579" lon="-0.90173">
        <ele>112</ele>
        <time>2023-11-05T16:38:57Z</time>
      </trkpt>
      <trkpt lat="46.96527" lon="-0.90222">
        <ele>110</ele>
        <time>2023-11-05T16:40:20Z</time>
      </trkpt>
      <trkpt lat="46.96396" lon="-0.90099">
        <ele>112</ele>
        <time>2023-11-05T16:43:47Z</time>
      </trkpt>
      <trkpt lat="46.9612" lon="-0.90045">
        <ele>138</ele>
        <time>2023-11-05T16:49:59Z</time>
      </trkpt>
      <trkpt lat="46.96144" lon="-0.89959">
        <ele>136</ele>
        <time>2023-11-05T16:51:23Z</time>
      </trkpt>
      <trkpt lat="46.95956" lon="-0.89887">
        <ele>140</ele>
        <time>2023-11-05T16:55:43Z</time>
      </trkpt>
      <trkpt lat="46.95847" lon="-0.89813">
        <ele>134</ele>
        <time>2023-11-05T16:58:23Z</time>
      </trkpt>
      <trkpt lat="46.95681" lon="-0.89801">
        <ele>138</ele>
        <time>2023-11-05T17:02:05Z</time>
      </trkpt>
      <trkpt lat="46.95577" lon="-0.89767">
        <ele>145</ele>
        <time>2023-11-05T17:04:27Z</time>
      </trkpt>
      <trkpt lat="46.95459" lon="-0.89741">
        <ele>145</ele>
        <time>2023-11-05T17:07:06Z</time>
      </trkpt>
      <trkpt lat="46.95293" lon="-0.89569">
        <ele>152</ele>
        <time>2023-11-05T17:11:38Z</time>
      </trkpt>
      <trkpt lat="46.9522" lon="-0.89564">
        <ele>150</ele>
        <time>2023-11-05T17:13:15Z</time>
      </trkpt>
      <trkpt lat="46.9489" lon="-0.89818">
        <ele>157</ele>
        <time>2023-11-05T17:21:33Z</time>
      </trkpt>
      <trkpt lat="46.94929" lon="-0.8994">
        <ele>155</ele>
        <time>2023-11-05T17:23:35Z</time>
      </trkpt>
      <trkpt lat="46.95058" lon="-0.90238">
        <ele>159</ele>
        <time>2023-11-05T17:28:57Z</time>
      </trkpt>
      <trkpt lat="46.95117" lon="-0.90369">
        <ele>159</ele>
        <time>2023-11-05T17:31:20Z</time>
      </trkpt>
      <trkpt lat="46.95273" lon="-0.90595">
        <ele>160</ele>
        <time>2023-11-05T17:36:13Z</time>
      </trkpt>
      <trkpt lat="46.95394" lon="-0.90467">
        <ele>161</ele>
        <time>2023-11-05T17:39:32Z</time>
      </trkpt>
      <trkpt lat="46.95464" lon="-0.90435">
        <ele>162</ele>
        <time>2023-11-05T17:41:10Z</time>
      </trkpt>
      <trkpt lat="46.95503" lon="-0.90381">
        <ele>161</ele>
        <time>2023-11-05T17:42:21Z</time>
      </trkpt>
      <trkpt lat="46.95554" lon="-0.90241">
        <ele>158</ele>
        <time>2023-11-05T17:44:46Z</time>
      </trkpt>
      <trkpt lat="46.95634" lon="-0.90092">
        <ele>147</ele>
        <time>2023-11-05T17:47:38Z</time>
      </trkpt>
      <trkpt lat="46.95691" lon="-0.90052">
        <ele>143</ele>
        <time>2023-11-05T17:49:03Z</time>
      </trkpt>
      <trkpt lat="46.95714" lon="-0.90155">
        <ele>149</ele>
        <time>2023-11-05T17:50:41Z</time>
      </trkpt>
      <trkpt lat="46.95751" lon="-0.90289">
        <ele>149</ele>
        <time>2023-11-05T17:52:53Z</time>
      </trkpt>
      <trkpt lat="46.958" lon="-0.90295">
        <ele>151</ele>
        <time>2023-11-05T17:53:59Z</time>
      </trkpt>
      <trkpt lat="46.95974" lon="-0.90246">
        <ele>150</ele>
        <time>2023-11-05T17:57:55Z</time>
      </trkpt>
      <trkpt lat="46.96011" lon="-0.90481">
        <ele>149</ele>
        <time>2023-11-05T18:01:35Z</time>
      </trkpt>
      <trkpt lat="46.96001" lon="-0.90635">
        <ele>149</ele>
        <time>2023-11-05T18:03:56Z</time>
      </trkpt>
      <trkpt lat="46.9612" lon="-0.90724">
        <ele>153</ele>
        <time>2023-11-05T18:06:54Z</time>
      </trkpt>
      <trkpt lat="46.96288" lon="-0.90899">
        <ele>157</ele>
        <time>2023-11-05T18:11:29Z</time>
      </trkpt>
      <trkpt lat="46.96224" lon="-0.90985">
        <ele>156</ele>
        <time>2023-11-05T18:13:25Z</time>
      </trkpt>
      <trkpt lat="46.96312" lon="-0.91253">
        <ele>144</ele>
        <time>2023-11-05T18:17:56Z</time>
      </trkpt>
      <trkpt lat="46.96304" lon="-0.91336">
        <ele>140</ele>
        <time>2023-11-05T18:19:12Z</time>
      </trkpt>
      <trkpt lat="46.96359" lon="-0.91595">
        <ele>126</ele>
        <time>2023-11-05T18:23:19Z</time>
      </trkpt>
      <trkpt lat="46.96499" lon="-0.9165">
        <ele>120</ele>
        <time>2023-11-05T18:26:33Z</time>
      </trkpt>
      <trkpt lat="46.96562" lon="-0.91787">
        <ele>106</ele>
        <time>2023-11-05T18:29:03Z</time>
      </trkpt>
      <trkpt lat="46.96511" lon="-0.91919">
        <ele>104</ele>
        <time>2023-11-05T18:31:21Z</time>
      </trkpt>
      <trkpt lat="46.96425" lon="-0.9197">
        <ele>115</ele>
        <time>2023-11-05T18:33:25Z</time>
      </trkpt>
      <trkpt lat="46.96437" lon="-0.92102">
        <ele>114</ele>
        <time>2023-11-05T18:35:26Z</time>
      </trkpt>
      <trkpt lat="46.96552" lon="-0.92182">
        <ele>101</ele>
        <time>2023-11-05T18:38:16Z</time>
      </trkpt>
      <trkpt lat="46.96474" lon="-0.92285">
        <ele>104</ele>
        <time>2023-11-05T18:40:36Z</time>
      </trkpt>
      <trkpt lat="46.96427" lon="-0.92368">
        <ele>112</ele>
        <time>2023-11-05T18:42:14Z</time>
      </trkpt>
      <trkpt lat="46.96493" lon="-0.92557">
        <ele>106</ele>
        <time>2023-11-05T18:45:28Z</time>
      </trkpt>
      <trkpt lat="46.96499" lon="-0.92637">
        <ele>107</ele>
        <time>2023-11-05T18:46:41Z</time>
      </trkpt>
      <trkpt lat="46.96402" lon="-0.9264">
        <ele>116</ele>
        <time>2023-11-05T18:48:51Z</time>
      </trkpt>
      <trkpt lat="46.96431" lon="-0.92691">
        <ele>113</ele>
        <time>2023-11-05T18:49:51Z</time>
      </trkpt>
      <trkpt lat="46.96519" lon="-0.92697">
        <ele>108</ele>
        <time>2023-11-05T18:51:49Z</time>
      </trkpt>
      <trkpt lat="46.96589" lon="-0.92783">
        <ele>104</ele>
        <time>2023-11-05T18:53:51Z</time>
      </trkpt>
      <trkpt lat="46.96575" lon="-0.92877">
        <ele>104</ele>
        <time>2023-11-05T18:55:18Z</time>
      </trkpt>
      <trkpt lat="46.96634" lon="-0.92929">
        <ele>100</ele>
        <time>2023-11-05T18:56:50Z</time>
      </trkpt>
      <trkpt lat="46.96724" lon="-0.92983">
        <ele>107</ele>
        <time>2023-11-05T18:59:00Z</time>
      </trkpt>
      <trkpt lat="46.96625" lon="-0.93103">
        <ele>107</ele>
        <time>2023-11-05T19:01:51Z</time>
      </trkpt>
      <trkpt lat="46.96594" lon="-0.93309">
        <ele>106</ele>
        <time>2023-11-05T19:05:03Z</time>
      </trkpt>
      <trkpt lat="46.96559" lon="-0.93692">
        <ele>104</ele>
        <time>2023-11-05T19:10:55Z</time>
      </trkpt>
      <trkpt lat="46.96588" lon="-0.9405">
        <ele>93</ele>
        <time>2023-11-05T19:16:24Z</time>
      </trkpt>
      <trkpt lat="46.96666" lon="-0.94133">
        <ele>101</ele>
        <time>2023-11-05T19:18:32Z</time>
      </trkpt>
      <trkpt lat="46.96725" lon="-0.94256">
        <ele>106</ele>
        <time>2023-11-05T19:20:49Z</time>
      </trkpt>
      <trkpt lat="46.96805" lon="-0.9431">
        <ele>108</ele>
        <time>2023-11-05T19:22:47Z</time>
      </trkpt>
      <trkpt lat="46.96908" lon="-0.9425">
        <ele>114</ele>
        <time>2023-11-05T19:25:15Z</time>
      </trkpt>
      <trkpt lat="46.96972" lon="-0.94203">
        <ele>112</ele>
        <time>2023-11-05T19:26:50Z</time>
      </trkpt>
      <trkpt lat="46.97081" lon="-0.94243">
        <ele>104</ele>
        <time>2023-11-05T19:29:20Z</time>
      </trkpt>
      <trkpt lat="46.9714" lon="-0.94126">
        <ele>113</ele>
        <time>2023-11-05T19:31:33Z</time>
      </trkpt>
      <trkpt lat="46.97144" lon="-0.94309">
        <ele>95</ele>
        <time>2023-11-05T19:34:19Z</time>
      </trkpt>
      <trkpt lat="46.97196" lon="-0.94401">
        <ele>93</ele>
        <time>2023-11-05T19:36:08Z</time>
      </trkpt>
      <trkpt lat="46.97282" lon="-0.94546">
        <ele>94</ele>
        <time>2023-11-05T19:39:03Z</time>
      </trkpt>
      <trkpt lat="46.97341" lon="-0.94664">
        <ele>82</ele>
        <time>2023-11-05T19:41:16Z</time>
      </trkpt>
      <trkpt lat="46.97441" lon="-0.94821">
        <ele>84</ele>
        <time>2023-11-05T19:44:32Z</time>
      </trkpt>
      <trkpt lat="46.97553" lon="-0.94924">
        <ele>82</ele>
        <time>2023-11-05T19:47:28Z</time>
      </trkpt>
      <trkpt lat="46.97666" lon="-0.94841">
        <ele>79</ele>
        <time>2023-11-05T19:50:17Z</time>
      </trkpt>
      <trkpt lat="46.97726" lon="-0.94715">
        <ele>82</ele>
        <time>2023-11-05T19:52:37Z</time>
      </trkpt>
      <trkpt lat="46.97764" lon="-0.94727">
        <ele>80</ele>
        <time>2023-11-05T19:53:29Z</time>
      </trkpt>
      <trkpt lat="46.97865" lon="-0.94747">
        <ele>80</ele>
        <time>2023-11-05T19:55:45Z</time>
      </trkpt>
      <trkpt lat="46.97965" lon="-0.9481">
        <ele>83</ele>
        <time>2023-11-05T19:58:10Z</time>
      </trkpt>
      <trkpt lat="46.98006" lon="-0.94904">
        <ele>81</ele>
        <time>2023-11-05T19:59:51Z</time>
      </trkpt>
      <trkpt lat="46.98109" lon="-0.95019">
        <ele>82</ele>
        <time>2023-11-05T20:02:44Z</time>
      </trkpt>
      <trkpt lat="46.98213" lon="-0.95179">
        <ele>85</ele>
        <time>2023-11-05T20:06:05Z</time>
      </trkpt>
      <trkpt lat="46.98286" lon="-0.95293">
        <ele>79</ele>
        <time>2023-11-05T20:08:28Z</time>
      </trkpt>
      <trkpt lat="46.98385" lon="-0.95359">
        <ele>85</ele>
        <time>2023-11-05T20:10:53Z</time>
      </trkpt>
      <trkpt lat="46.98454" lon="-0.95451">
        <ele>82</ele>
        <time>2023-11-05T20:12:57Z</time>
      </trkpt>
      <trkpt lat="46.98483" lon="-0.95488">
        <ele>84</ele>
        <time>2023-11-05T20:13:49Z</time>
      </trkpt>
      <trkpt lat="46.98482" lon="-0.95551">
        <ele>80</ele>
        <time>2023-11-05T20:14:46Z</time>
      </trkpt>
      <trkpt lat="46.98543" lon="-0.95742">
        <ele>80</ele>
        <time>2023-11-05T20:17:58Z</time>
      </trkpt>
      <trkpt lat="46.98606" lon="-0.95858">
        <ele>77</ele>
        <time>2023-11-05T20:20:13Z</time>
      </trkpt>
      <trkpt lat="46.98678" lon="-0.95892">
        <ele>74</ele>
        <time>2023-11-05T20:21:54Z</time>
      </trkpt>
      <trkpt lat="46.98679" lon="-0.96049">
        <ele>80</ele>
        <time>2023-11-05T20:24:17Z</time>
      </trkpt>
      <trkpt lat="46.98904" lon="-0.9588">
        <ele>75</ele>
        <time>2023-11-05T20:29:54Z</time>
      </trkpt>
      <trkpt lat="46.99024" lon="-0.95842">
        <ele>76</ele>
        <time>2023-11-05T20:32:38Z</time>
      </trkpt>
      <trkpt lat="46.99155" lon="-0.95928">
        <ele>77</ele>
        <time>2023-11-05T20:35:50Z</time>
      </trkpt>
      <trkpt lat="46.99283" lon="-0.96247">
        <ele>91</ele>
        <time>2023-11-05T20:41:27Z</time>
      </trkpt>
      <trkpt lat="46.99353" lon="-0.96316">
        <ele>83</ele>
        <time>2023-11-05T20:43:19Z</time>
      </trkpt>
      <trkpt lat="46.99411" lon="-0.96491">
        <ele>82</ele>
        <time>2023-11-05T20:46:16Z</time>
      </trkpt>
      <trkpt lat="46.99523" lon="-0.96605">
        <ele>76</ele>
        <time>2023-11-05T20:49:18Z</time>
      </trkpt>
      <trkpt lat="46.99537" lon="-0.96671">
        <ele>75</ele>
        <time>2023-11-05T20:50:21Z</time>
      </trkpt>
      <trkpt lat="46.99569" lon="-0.96657">
        <ele>69</ele>
        <time>2023-11-05T20:51:06Z</time>
      </trkpt>
      <trkpt lat="46.99623" lon="-0.96762">
        <ele>75</ele>
        <time>2023-11-05T20:53:05Z</time>
      </trkpt>
      <trkpt lat="46.99672" lon="-0.96666">
        <ele>77</ele>
        <time>2023-11-05T20:54:54Z</time>
      </trkpt>
      <trkpt lat="46.99505" lon="-0.96336">
        <ele>75</ele>
        <time>2023-11-05T21:01:08Z</time>
      </trkpt>
      <trkpt lat="46.99432" lon="-0.96043">
        <ele>80</ele>
        <time>2023-11-05T21:05:52Z</time>
      </trkpt>
      <trkpt lat="46.99337" lon="-0.9598">
        <ele>72</ele>
        <time>2023-11-05T21:08:11Z</time>
      </trkpt>
      <trkpt lat="46.99302" lon="-0.95898">
        <ele>78</ele>
        <time>2023-11-05T21:09:40Z</time>
      </trkpt>
      <trkpt lat="46.99229" lon="-0.95754">
        <ele>83</ele>
        <time>2023-11-05T21:12:23Z</time>
      </trkpt>
      <trkpt lat="46.99195" lon="-0.95697">
        <ele>84</ele>
        <time>2023-11-05T21:13:32Z</time>
      </trkpt>
      <trkpt lat="46.9916" lon="-0.95685">
        <ele>78</ele>
        <time>2023-11-05T21:14:20Z</time>
      </trkpt>
      <trkpt lat="46.99116" lon="-0.95638">
        <ele>81</ele>
        <time>2023-11-05T21:15:32Z</time>
      </trkpt>
      <trkpt lat="46.99045" lon="-0.95611">
        <ele>79</ele>
        <time>2023-11-05T21:17:10Z</time>
      </trkpt>
      <trkpt lat="46.98882" lon="-0.95725">
        <ele>72</ele>
        <time>2023-11-05T21:21:11Z</time>
      </trkpt>
      <trkpt lat="46.98855" lon="-0.95696">
        <ele>77</ele>
        <time>2023-11-05T21:21:56Z</time>
      </trkpt>
      <trkpt lat="46.98917" lon="-0.95579">
        <ele>83</ele>
        <time>2023-11-05T21:24:11Z</time>
      </trkpt>
      <trkpt lat="46.98909" lon="-0.95533">
        <ele>90</ele>
        <time>2023-11-05T21:24:54Z</time>
      </trkpt>
      <trkpt lat="46.98846" lon="-0.95482">
        <ele>102</ele>
        <time>2023-11-05T21:26:30Z</time>
      </trkpt>
      <trkpt lat="46.98829" lon="-0.95387">
        <ele>108</ele>
        <time>2023-11-05T21:27:59Z</time>
      </trkpt>
      <trkpt lat="46.98737" lon="-0.9535">
        <ele>115</ele>
        <time>2023-11-05T21:30:07Z</time>
      </trkpt>
      <trkpt lat="46.98787" lon="-0.95282">
        <ele>117</ele>
        <time>2023-11-05T21:31:38Z</time>
      </trkpt>
      <trkpt lat="46.98854" lon="-0.95093">
        <ele>127</ele>
        <time>2023-11-05T21:34:52Z</time>
      </trkpt>
      <trkpt lat="46.9891" lon="-0.95059">
        <ele>128</ele>
        <time>2023-11-05T21:36:13Z</time>
      </trkpt>
      <trkpt lat="46.98936" lon="-0.94944">
        <ele>131</ele>
        <time>2023-11-05T21:38:03Z</time>
      </trkpt>
      <trkpt lat="46.98926" lon="-0.94838">
        <ele>130</ele>
        <time>2023-11-05T21:39:40Z</time>
      </trkpt>
      <trkpt lat="46.98908" lon="-0.94767">
        <ele>130</ele>
        <time>2023-11-05T21:40:49Z</time>
      </trkpt>
      <trkpt lat="46.98945" lon="-0.94741">
        <ele>129</ele>
        <time>2023-11-05T21:41:44Z</time>
      </trkpt>
      <trkpt lat="46.98869" lon="-0.94558">
        <ele>130</ele>
        <time>2023-11-05T21:44:59Z</time>
      </trkpt>
      <trkpt lat="46.98819" lon="-0.94466">
        <ele>130</ele>
        <time>2023-11-05T21:46:46Z</time>
      </trkpt>
    </trkseg>
  </trk>
</gpx>